<?xml version='1.0' encoding='UTF-8'?><gpx version="1.1" creator="JPX - https://github.com/jenetics/jpx" xmlns="http://www.topografix.com/GPX/1/1"><trk><trkseg><trkpt lat="46.49115661832687" lon="11.781752801470256"><ele>1722.0</ele><time>2026-05-02T14:15:21Z</time></trkpt><trkpt lat="46.491224532406534" lon="11.78179073271268"><ele>1722.0</ele><time>2026-05-02T14:15:27Z</time></trkpt><trkpt lat="46.49128473129207" lon="11.781742439217403"><ele>1722.0</ele><time>2026-05-02T14:15:35Z</time></trkpt><trkpt lat="46.49128738924825" lon="11.781645823689887"><ele>1722.0</ele><time>2026-05-02T14:15:44Z</time></trkpt><trkpt lat="46.49129055425129" lon="11.781548902737454"><ele>1722.0</ele><time>2026-05-02T14:15:53Z</time></trkpt><trkpt lat="46.49129743580945" lon="11.78144007576136"><ele>1722.0</ele><time>2026-05-02T14:15:59Z</time></trkpt><trkpt lat="46.49131329137669" lon="11.781346858561474"><ele>1722.0</ele><time>2026-05-02T14:16:05Z</time></trkpt><trkpt lat="46.49127158268973" lon="11.781254558847095"><ele>1722.142857142857</ele><time>2026-05-02T14:16:13Z</time></trkpt><trkpt lat="46.49130264978223" lon="11.781163330208425"><ele>1722.2857142857142</ele><time>2026-05-02T14:16:19Z</time></trkpt><trkpt lat="46.491341535274636" lon="11.781088479661415"><ele>1722.4285714285716</ele><time>2026-05-02T14:16:26.001Z</time></trkpt><trkpt lat="46.491393617336016" lon="11.7810220281154"><ele>1722.5714285714284</ele><time>2026-05-02T14:16:33.001Z</time></trkpt><trkpt lat="46.49143649662549" lon="11.780931024351924"><ele>1722.7142857142858</ele><time>2026-05-02T14:16:47.001Z</time></trkpt><trkpt lat="46.491452956623434" lon="11.780832983731083"><ele>1722.857142857143</ele><time>2026-05-02T14:16:53.001Z</time></trkpt><trkpt lat="46.49143930859484" lon="11.780738705442598"><ele>1723.0</ele><time>2026-05-02T14:17:01.999Z</time></trkpt><trkpt lat="46.491438531948674" lon="11.780645043700758"><ele>1723.7142857142858</ele><time>2026-05-02T14:17:10.999Z</time></trkpt><trkpt lat="46.49143927382355" lon="11.780546539920472"><ele>1724.4285714285716</ele><time>2026-05-02T14:17:19.999Z</time></trkpt><trkpt lat="46.4914406533345" lon="11.780446826242644"><ele>1725.142857142857</ele><time>2026-05-02T14:17:29Z</time></trkpt><trkpt lat="46.49145073143018" lon="11.780355328958452"><ele>1725.857142857143</ele><time>2026-05-02T14:17:36Z</time></trkpt><trkpt lat="46.49145928120735" lon="11.780261463527568"><ele>1726.5714285714284</ele><time>2026-05-02T14:17:45Z</time></trkpt><trkpt lat="46.491454525332934" lon="11.780170163110773"><ele>1727.2857142857142</ele><time>2026-05-02T14:17:54Z</time></trkpt><trkpt lat="46.49138633081868" lon="11.780167273269978"><ele>1728.0</ele><time>2026-05-02T14:18:06Z</time></trkpt><trkpt lat="46.49131293079657" lon="11.78014953564994"><ele>1730.5714285714284</ele><time>2026-05-02T14:18:13Z</time></trkpt><trkpt lat="46.49124643551114" lon="11.780132861821322"><ele>1733.142857142857</ele><time>2026-05-02T14:18:19Z</time></trkpt><trkpt lat="46.491177822305644" lon="11.780113637479355"><ele>1735.7142857142858</ele><time>2026-05-02T14:18:25Z</time></trkpt><trkpt lat="46.49111386612481" lon="11.780072717858193"><ele>1738.2857142857142</ele><time>2026-05-02T14:18:31Z</time></trkpt><trkpt lat="46.491056727923144" lon="11.78001398652122"><ele>1740.857142857143</ele><time>2026-05-02T14:18:38Z</time></trkpt><trkpt lat="46.491010424066424" lon="11.779949029025785"><ele>1743.4285714285713</ele><time>2026-05-02T14:18:44Z</time></trkpt><trkpt lat="46.49095302303131" lon="11.779887608567412"><ele>1746.0</ele><time>2026-05-02T14:18:51.001Z</time></trkpt><trkpt lat="46.490896008449575" lon="11.779826791059739"><ele>1745.9999999999998</ele><time>2026-05-02T14:18:57.001Z</time></trkpt><trkpt lat="46.49084345985736" lon="11.779770737430628"><ele>1746.0</ele><time>2026-05-02T14:19:02.001Z</time></trkpt><trkpt lat="46.49079035958479" lon="11.779712377158127"><ele>1746.0</ele><time>2026-05-02T14:19:06.999Z</time></trkpt><trkpt lat="46.490736880968704" lon="11.779655238506834"><ele>1746.0</ele><time>2026-05-02T14:19:11.999Z</time></trkpt><trkpt lat="46.49068417292255" lon="11.779598703669958"><ele>1746.0</ele><time>2026-05-02T14:19:16.999Z</time></trkpt><trkpt lat="46.49063349171492" lon="11.779544342831082"><ele>1745.9999999999998</ele><time>2026-05-02T14:19:21Z</time></trkpt><trkpt lat="46.49058578922727" lon="11.779467223043705"><ele>1746.0</ele><time>2026-05-02T14:19:27Z</time></trkpt><trkpt lat="46.49055926150967" lon="11.779364497406501"><ele>1745.5714285714284</ele><time>2026-05-02T14:19:33Z</time></trkpt><trkpt lat="46.4905077901393" lon="11.779308723300687"><ele>1745.142857142857</ele><time>2026-05-02T14:19:38Z</time></trkpt><trkpt lat="46.490462367830595" lon="11.779241877695748"><ele>1744.7142857142858</ele><time>2026-05-02T14:19:44Z</time></trkpt><trkpt lat="46.49039290188414" lon="11.779194761494399"><ele>1744.2857142857142</ele><time>2026-05-02T14:19:50Z</time></trkpt><trkpt lat="46.49033831119766" lon="11.779144721177117"><ele>1743.857142857143</ele><time>2026-05-02T14:19:54Z</time></trkpt><trkpt lat="46.49029366347846" lon="11.779075058841974"><ele>1743.4285714285713</ele><time>2026-05-02T14:19:59Z</time></trkpt><trkpt lat="46.49023631083167" lon="11.77900981594892"><ele>1743.0</ele><time>2026-05-02T14:20:05Z</time></trkpt><trkpt lat="46.49018713366976" lon="11.778952336101053"><ele>1743.0</ele><time>2026-05-02T14:20:10Z</time></trkpt><trkpt lat="46.4901519597011" lon="11.778866518203138"><ele>1743.0</ele><time>2026-05-02T14:20:17Z</time></trkpt><trkpt lat="46.490137384710145" lon="11.778776710776027"><ele>1743.0</ele><time>2026-05-02T14:20:23.001Z</time></trkpt><trkpt lat="46.49012710106179" lon="11.778670642178456"><ele>1743.0</ele><time>2026-05-02T14:20:30.001Z</time></trkpt><trkpt lat="46.49013492302822" lon="11.778571801069496"><ele>1743.0</ele><time>2026-05-02T14:20:36.001Z</time></trkpt><trkpt lat="46.490136620146984" lon="11.778467694246183"><ele>1743.0</ele><time>2026-05-02T14:20:42.001Z</time></trkpt><trkpt lat="46.49013317565277" lon="11.778375720158703"><ele>1743.0</ele><time>2026-05-02T14:20:54.001Z</time></trkpt><trkpt lat="46.49012242296309" lon="11.778281445140559"><ele>1744.4285714285713</ele><time>2026-05-02T14:21:01.001Z</time></trkpt><trkpt lat="46.49011535698926" lon="11.77817646519141"><ele>1745.857142857143</ele><time>2026-05-02T14:21:09.001Z</time></trkpt><trkpt lat="46.49010863506052" lon="11.77807659677942"><ele>1747.2857142857142</ele><time>2026-05-02T14:21:16Z</time></trkpt><trkpt lat="46.49010220028062" lon="11.777980994544121"><ele>1748.7142857142858</ele><time>2026-05-02T14:21:22Z</time></trkpt><trkpt lat="46.49008321551116" lon="11.777886211112547"><ele>1750.142857142857</ele><time>2026-05-02T14:21:38Z</time></trkpt><trkpt lat="46.49004107175638" lon="11.777814769702323"><ele>1751.5714285714284</ele><time>2026-05-02T14:21:44Z</time></trkpt><trkpt lat="46.48999448295097" lon="11.777745554674855"><ele>1753.0</ele><time>2026-05-02T14:21:50Z</time></trkpt><trkpt lat="46.48993259751221" lon="11.777689588531667"><ele>1756.4285714285713</ele><time>2026-05-02T14:21:57Z</time></trkpt><trkpt lat="46.489878564275394" lon="11.777629026604695"><ele>1759.857142857143</ele><time>2026-05-02T14:22:04.001Z</time></trkpt><trkpt lat="46.48982482959372" lon="11.77755948337256"><ele>1763.2857142857142</ele><time>2026-05-02T14:22:11.001Z</time></trkpt><trkpt lat="46.48978381759336" lon="11.777489655480132"><ele>1766.7142857142858</ele><time>2026-05-02T14:22:17.001Z</time></trkpt><trkpt lat="46.48975603170878" lon="11.77738983613676"><ele>1770.142857142857</ele><time>2026-05-02T14:22:24.001Z</time></trkpt><trkpt lat="46.48971373403244" lon="11.777302533297872"><ele>1773.5714285714284</ele><time>2026-05-02T14:22:30.001Z</time></trkpt><trkpt lat="46.48969941834398" lon="11.77720551319585"><ele>1777.0</ele><time>2026-05-02T14:22:36.001Z</time></trkpt><trkpt lat="46.489700611142375" lon="11.777107965871759"><ele>1777.0</ele><time>2026-05-02T14:22:43.001Z</time></trkpt><trkpt lat="46.48973227102899" lon="11.777016519860336"><ele>1777.0</ele><time>2026-05-02T14:22:50.001Z</time></trkpt><trkpt lat="46.48977258878568" lon="11.77694465090795"><ele>1777.0</ele><time>2026-05-02T14:22:59.001Z</time></trkpt><trkpt lat="46.48983961274912" lon="11.776937944909358"><ele>1777.0</ele><time>2026-05-02T14:23:05.001Z</time></trkpt><trkpt lat="46.489906078908334" lon="11.776986170233371"><ele>1777.0</ele><time>2026-05-02T14:23:13.001Z</time></trkpt><trkpt lat="46.48996754412555" lon="11.777015042588147"><ele>1777.0</ele><time>2026-05-02T14:23:20.001Z</time></trkpt><trkpt lat="46.49002318796488" lon="11.777064601988743"><ele>1777.0</ele><time>2026-05-02T14:23:27.001Z</time></trkpt><trkpt lat="46.49008638285099" lon="11.77704908283534"><ele>1777.0</ele><time>2026-05-02T14:23:33.001Z</time></trkpt><trkpt lat="46.49015717379865" lon="11.77703048170995"><ele>1777.0</ele><time>2026-05-02T14:23:39.001Z</time></trkpt><trkpt lat="46.49023123939157" lon="11.776975797570282"><ele>1777.0</ele><time>2026-05-02T14:23:48.001Z</time></trkpt><trkpt lat="46.490294687408706" lon="11.776948869639309"><ele>1777.0</ele><time>2026-05-02T14:23:54.001Z</time></trkpt><trkpt lat="46.49032625680613" lon="11.776855647995896"><ele>1777.0</ele><time>2026-05-02T14:24:03.001Z</time></trkpt><trkpt lat="46.49034000412532" lon="11.776761262564445"><ele>1777.0</ele><time>2026-05-02T14:24:10.001Z</time></trkpt><trkpt lat="46.49033383396823" lon="11.776658002222947"><ele>1777.0</ele><time>2026-05-02T14:24:18.001Z</time></trkpt><trkpt lat="46.49029781286734" lon="11.776569412705417"><ele>1779.4285714285713</ele><time>2026-05-02T14:24:29.001Z</time></trkpt><trkpt lat="46.49022661582567" lon="11.776541429910544"><ele>1781.8571428571427</ele><time>2026-05-02T14:24:41.001Z</time></trkpt><trkpt lat="46.49016555362775" lon="11.776493071784625"><ele>1784.2857142857142</ele><time>2026-05-02T14:24:46.001Z</time></trkpt><trkpt lat="46.49010293005229" lon="11.776431767663054"><ele>1786.7142857142858</ele><time>2026-05-02T14:24:53.001Z</time></trkpt><trkpt lat="46.49003636332726" lon="11.776388414937797"><ele>1789.142857142857</ele><time>2026-05-02T14:25:00.001Z</time></trkpt><trkpt lat="46.48997586869141" lon="11.77634558013699"><ele>1791.5714285714287</ele><time>2026-05-02T14:25:06.001Z</time></trkpt><trkpt lat="46.489916227757774" lon="11.776299158970547"><ele>1794.0</ele><time>2026-05-02T14:25:11.001Z</time></trkpt><trkpt lat="46.48985006665327" lon="11.77626295013075"><ele>1794.0</ele><time>2026-05-02T14:25:17.001Z</time></trkpt><trkpt lat="46.48977353724652" lon="11.776263284563772"><ele>1794.0</ele><time>2026-05-02T14:25:23.001Z</time></trkpt><trkpt lat="46.489702630955556" lon="11.776249405933147"><ele>1794.0</ele><time>2026-05-02T14:25:29.001Z</time></trkpt><trkpt lat="46.48964200459666" lon="11.776223132262263"><ele>1794.0</ele><time>2026-05-02T14:25:35.001Z</time></trkpt><trkpt lat="46.48958735965141" lon="11.776173194822096"><ele>1794.0</ele><time>2026-05-02T14:25:42.001Z</time></trkpt><trkpt lat="46.489525071254896" lon="11.776135465506869"><ele>1794.0</ele><time>2026-05-02T14:25:48.001Z</time></trkpt><trkpt lat="46.48946188493937" lon="11.77610777456153"><ele>1794.0</ele><time>2026-05-02T14:25:54.001Z</time></trkpt><trkpt lat="46.4894007083012" lon="11.77608353724305"><ele>1792.857142857143</ele><time>2026-05-02T14:26:00.001Z</time></trkpt><trkpt lat="46.48932858493618" lon="11.776086773476843"><ele>1791.7142857142856</ele><time>2026-05-02T14:26:06.001Z</time></trkpt><trkpt lat="46.48926005142603" lon="11.776081819465496"><ele>1790.5714285714284</ele><time>2026-05-02T14:26:12.001Z</time></trkpt><trkpt lat="46.48919230937609" lon="11.776076658521351"><ele>1789.4285714285716</ele><time>2026-05-02T14:26:18.001Z</time></trkpt><trkpt lat="46.48912587650045" lon="11.776064421080706"><ele>1788.2857142857142</ele><time>2026-05-02T14:26:24.001Z</time></trkpt><trkpt lat="46.48905725534084" lon="11.776059120866933"><ele>1787.142857142857</ele><time>2026-05-02T14:26:30.001Z</time></trkpt><trkpt lat="46.4889832707734" lon="11.776033113869666"><ele>1786.0</ele><time>2026-05-02T14:26:35.001Z</time></trkpt><trkpt lat="46.488926224176204" lon="11.775979712452886"><ele>1785.857142857143</ele><time>2026-05-02T14:26:40.001Z</time></trkpt><trkpt lat="46.488865339662944" lon="11.775920276850655"><ele>1785.7142857142858</ele><time>2026-05-02T14:26:45.001Z</time></trkpt><trkpt lat="46.488814440146925" lon="11.77585826495179"><ele>1785.5714285714284</ele><time>2026-05-02T14:26:51.001Z</time></trkpt><trkpt lat="46.488755526120784" lon="11.775806882141934"><ele>1785.4285714285716</ele><time>2026-05-02T14:26:56.001Z</time></trkpt><trkpt lat="46.48869683422833" lon="11.775730151468478"><ele>1785.2857142857142</ele><time>2026-05-02T14:27:01.001Z</time></trkpt><trkpt lat="46.488636205248916" lon="11.775680118778757"><ele>1785.142857142857</ele><time>2026-05-02T14:27:06.001Z</time></trkpt><trkpt lat="46.48857865520523" lon="11.775621818374116"><ele>1785.0</ele><time>2026-05-02T14:27:12.001Z</time></trkpt><trkpt lat="46.48852590777286" lon="11.775546886028476"><ele>1785.0</ele><time>2026-05-02T14:27:18.001Z</time></trkpt><trkpt lat="46.48848557354022" lon="11.775455587546787"><ele>1785.0</ele><time>2026-05-02T14:27:24.001Z</time></trkpt><trkpt lat="46.488442811637185" lon="11.775372473884204"><ele>1785.0</ele><time>2026-05-02T14:27:30.001Z</time></trkpt><trkpt lat="46.48840006987125" lon="11.775299677233205"><ele>1785.0</ele><time>2026-05-02T14:27:35.001Z</time></trkpt><trkpt lat="46.48834442115269" lon="11.77523266656382"><ele>1785.0</ele><time>2026-05-02T14:27:41.001Z</time></trkpt><trkpt lat="46.488289253090656" lon="11.77516620755073"><ele>1785.0</ele><time>2026-05-02T14:27:47.001Z</time></trkpt><trkpt lat="46.488225560865295" lon="11.77516038990223"><ele>1785.0</ele><time>2026-05-02T14:27:53.001Z</time></trkpt><trkpt lat="46.488157330451045" lon="11.775182020885573"><ele>1785.0</ele><time>2026-05-02T14:27:59.001Z</time></trkpt><trkpt lat="46.488092749490455" lon="11.77519207939707"><ele>1785.0</ele><time>2026-05-02T14:28:04.001Z</time></trkpt><trkpt lat="46.48802634771401" lon="11.77519713709995"><ele>1785.0</ele><time>2026-05-02T14:28:09.001Z</time></trkpt><trkpt lat="46.487954967611635" lon="11.775210977841725"><ele>1785.0</ele><time>2026-05-02T14:28:15.001Z</time></trkpt><trkpt lat="46.4878996934976" lon="11.775255355057602"><ele>1785.0</ele><time>2026-05-02T14:28:20.001Z</time></trkpt><trkpt lat="46.4878349853965" lon="11.775307564425002"><ele>1785.0</ele><time>2026-05-02T14:28:25.001Z</time></trkpt><trkpt lat="46.487768266462595" lon="11.775358628523389"><ele>1785.0</ele><time>2026-05-02T14:28:31.001Z</time></trkpt><trkpt lat="46.48770073326781" lon="11.77535926536064"><ele>1785.4285714285713</ele><time>2026-05-02T14:28:37.001Z</time></trkpt><trkpt lat="46.48763724778356" lon="11.775327917967461"><ele>1785.857142857143</ele><time>2026-05-02T14:28:42.001Z</time></trkpt><trkpt lat="46.487581762725576" lon="11.77527440861355"><ele>1786.2857142857142</ele><time>2026-05-02T14:28:48.001Z</time></trkpt><trkpt lat="46.487519098136225" lon="11.77521522122069"><ele>1786.7142857142858</ele><time>2026-05-02T14:28:55.001Z</time></trkpt><trkpt lat="46.487453748768246" lon="11.775197147452996"><ele>1787.142857142857</ele><time>2026-05-02T14:29:00.001Z</time></trkpt><trkpt lat="46.48738911217999" lon="11.77522201041646"><ele>1787.5714285714284</ele><time>2026-05-02T14:29:06.001Z</time></trkpt><trkpt lat="46.48732721718792" lon="11.775244784689"><ele>1788.0</ele><time>2026-05-02T14:29:11.001Z</time></trkpt><trkpt lat="46.487257866096186" lon="11.775248207639937"><ele>1787.9999999999998</ele><time>2026-05-02T14:29:17.001Z</time></trkpt><trkpt lat="46.48718963597641" lon="11.775260327500988"><ele>1788.0</ele><time>2026-05-02T14:29:23.001Z</time></trkpt><trkpt lat="46.48711597789359" lon="11.775276638816022"><ele>1788.0</ele><time>2026-05-02T14:29:29.001Z</time></trkpt><trkpt lat="46.48704378675092" lon="11.775278938423561"><ele>1788.0</ele><time>2026-05-02T14:29:35.001Z</time></trkpt><trkpt lat="46.486973823567126" lon="11.775290231711434"><ele>1788.0</ele><time>2026-05-02T14:29:41.001Z</time></trkpt><trkpt lat="46.486907667986905" lon="11.775264074735391"><ele>1787.9999999999998</ele><time>2026-05-02T14:29:47.001Z</time></trkpt><trkpt lat="46.48684622500442" lon="11.775230921198872"><ele>1788.0</ele><time>2026-05-02T14:29:52.001Z</time></trkpt><trkpt lat="46.48677614622056" lon="11.775229344865409"><ele>1788.7142857142856</ele><time>2026-05-02T14:29:58Z</time></trkpt><trkpt lat="46.486698363278485" lon="11.775240995195995"><ele>1789.4285714285716</ele><time>2026-05-02T14:30:04Z</time></trkpt><trkpt lat="46.48662647002724" lon="11.775248931555705"><ele>1790.1428571428573</ele><time>2026-05-02T14:30:11Z</time></trkpt><trkpt lat="46.48655144977128" lon="11.77526408513894"><ele>1790.857142857143</ele><time>2026-05-02T14:30:18Z</time></trkpt><trkpt lat="46.48648824663774" lon="11.775221698065774"><ele>1791.5714285714287</ele><time>2026-05-02T14:30:24Z</time></trkpt><trkpt lat="46.48642040045499" lon="11.775175224047718"><ele>1792.2857142857144</ele><time>2026-05-02T14:30:31Z</time></trkpt><trkpt lat="46.48634757345497" lon="11.775173927944797"><ele>1793.0000000000002</ele><time>2026-05-02T14:30:37Z</time></trkpt><trkpt lat="46.48627266667937" lon="11.77517047598119"><ele>1791.4285714285718</ele><time>2026-05-02T14:30:43Z</time></trkpt><trkpt lat="46.486209881316476" lon="11.775149397941293"><ele>1789.857142857143</ele><time>2026-05-02T14:30:48Z</time></trkpt><trkpt lat="46.486146974057824" lon="11.775155490596092"><ele>1788.2857142857144</ele><time>2026-05-02T14:30:53Z</time></trkpt><trkpt lat="46.48608789918498" lon="11.775191127388899"><ele>1786.7142857142858</ele><time>2026-05-02T14:30:58Z</time></trkpt><trkpt lat="46.486029897231454" lon="11.775235701399058"><ele>1785.1428571428573</ele><time>2026-05-02T14:31:05Z</time></trkpt><trkpt lat="46.48595343532466" lon="11.775206217869732"><ele>1783.5714285714287</ele><time>2026-05-02T14:31:34.001Z</time></trkpt><trkpt lat="46.4859246125435" lon="11.77529064586336"><ele>1782.0</ele><time>2026-05-02T14:31:44.001Z</time></trkpt><trkpt lat="46.48592900565314" lon="11.775406684801373"><ele>1782.0</ele><time>2026-05-02T14:31:50Z</time></trkpt><trkpt lat="46.48588212618573" lon="11.775478253639378"><ele>1782.0</ele><time>2026-05-02T14:31:57Z</time></trkpt><trkpt lat="46.48581001408806" lon="11.775578420807632"><ele>1782.0</ele><time>2026-05-02T14:33:36Z</time></trkpt><trkpt lat="46.485786571265066" lon="11.775473594376697"><ele>1782.0</ele><time>2026-05-02T14:34:46Z</time></trkpt><trkpt lat="46.485847628825944" lon="11.775506741168583"><ele>1782.0</ele><time>2026-05-02T14:35:04Z</time></trkpt><trkpt lat="46.485901712767266" lon="11.775451834763587"><ele>1782.0</ele><time>2026-05-02T14:42:18Z</time></trkpt><trkpt lat="46.485932734748" lon="11.775349550910384"><ele>1782.0000000000002</ele><time>2026-05-02T14:42:35Z</time></trkpt><trkpt lat="46.485944808511476" lon="11.775240914864794"><ele>1782.0</ele><time>2026-05-02T14:42:40Z</time></trkpt><trkpt lat="46.48598822057557" lon="11.77513728641576"><ele>1782.0</ele><time>2026-05-02T14:42:46Z</time></trkpt><trkpt lat="46.48603733965405" lon="11.775078327110938"><ele>1782.0</ele><time>2026-05-02T14:42:55Z</time></trkpt><trkpt lat="46.486101591085124" lon="11.77509272022124"><ele>1782.0</ele><time>2026-05-02T14:43:01Z</time></trkpt><trkpt lat="46.48616658501189" lon="11.775084156737524"><ele>1782.0000000000002</ele><time>2026-05-02T14:43:07Z</time></trkpt><trkpt lat="46.48623548390135" lon="11.775046709469066"><ele>1782.0</ele><time>2026-05-02T14:43:13Z</time></trkpt><trkpt lat="46.4863088861569" lon="11.775025781865672"><ele>1786.8571428571431</ele><time>2026-05-02T14:43:22Z</time></trkpt><trkpt lat="46.486377116479694" lon="11.775023395519918"><ele>1791.7142857142858</ele><time>2026-05-02T14:43:28Z</time></trkpt><trkpt lat="46.4864403764441" lon="11.775006511015386"><ele>1796.5714285714287</ele><time>2026-05-02T14:43:34Z</time></trkpt><trkpt lat="46.48650779468712" lon="11.774990129793634"><ele>1801.4285714285716</ele><time>2026-05-02T14:43:40Z</time></trkpt><trkpt lat="46.486576528850705" lon="11.774963341011413"><ele>1806.2857142857144</ele><time>2026-05-02T14:43:47Z</time></trkpt><trkpt lat="46.486635814700925" lon="11.77491040212703"><ele>1811.1428571428573</ele><time>2026-05-02T14:43:53Z</time></trkpt><trkpt lat="46.48669951384889" lon="11.774875784612709"><ele>1816.0</ele><time>2026-05-02T14:43:58Z</time></trkpt><trkpt lat="46.486766785690264" lon="11.774878331609765"><ele>1816.0</ele><time>2026-05-02T14:44:04Z</time></trkpt><trkpt lat="46.48683724976602" lon="11.774881207446834"><ele>1816.0000000000002</ele><time>2026-05-02T14:44:17.999Z</time></trkpt><trkpt lat="46.48690010282662" lon="11.774856344329534"><ele>1816.0</ele><time>2026-05-02T14:44:23.999Z</time></trkpt><trkpt lat="46.48696546966583" lon="11.774830486845705"><ele>1816.0</ele><time>2026-05-02T14:44:29.999Z</time></trkpt><trkpt lat="46.48703707735787" lon="11.774802160622505"><ele>1816.0000000000002</ele><time>2026-05-02T14:44:36Z</time></trkpt><trkpt lat="46.48710195029463" lon="11.774776266407134"><ele>1816.0</ele><time>2026-05-02T14:44:41Z</time></trkpt><trkpt lat="46.48718080299324" lon="11.774742527710439"><ele>1816.0</ele><time>2026-05-02T14:44:47Z</time></trkpt><trkpt lat="46.487240513994934" lon="11.774680769874317"><ele>1815.2857142857144</ele><time>2026-05-02T14:44:53Z</time></trkpt><trkpt lat="46.487285508687044" lon="11.77459033162298"><ele>1814.571428571429</ele><time>2026-05-02T14:44:59Z</time></trkpt><trkpt lat="46.48734305144086" lon="11.77455298476233"><ele>1813.857142857143</ele><time>2026-05-02T14:45:04Z</time></trkpt><trkpt lat="46.48740556071498" lon="11.774527892346475"><ele>1813.1428571428573</ele><time>2026-05-02T14:45:08Z</time></trkpt><trkpt lat="46.48747068256571" lon="11.774501662813146"><ele>1812.4285714285716</ele><time>2026-05-02T14:45:15Z</time></trkpt><trkpt lat="46.48754357750954" lon="11.774485271299959"><ele>1811.7142857142858</ele><time>2026-05-02T14:45:26Z</time></trkpt><trkpt lat="46.48762862828848" lon="11.774483570153123"><ele>1811.0</ele><time>2026-05-02T14:45:35Z</time></trkpt><trkpt lat="46.487692887627894" lon="11.774452478069408"><ele>1811.0</ele><time>2026-05-02T14:45:41Z</time></trkpt><trkpt lat="46.48775990917055" lon="11.774448657864"><ele>1811.0</ele><time>2026-05-02T14:45:45Z</time></trkpt><trkpt lat="46.48781999575422" lon="11.774384670080362"><ele>1811.0</ele><time>2026-05-02T14:45:55Z</time></trkpt><trkpt lat="46.487909396566316" lon="11.774371280330207"><ele>1811.0</ele><time>2026-05-02T14:46:02Z</time></trkpt><trkpt lat="46.48797458681492" lon="11.774356694818447"><ele>1811.0</ele><time>2026-05-02T14:46:12Z</time></trkpt><trkpt lat="46.48803147102051" lon="11.774304314384272"><ele>1811.0</ele><time>2026-05-02T14:46:17Z</time></trkpt><trkpt lat="46.488080149961725" lon="11.774238185824995"><ele>1811.0</ele><time>2026-05-02T14:46:22.999Z</time></trkpt><trkpt lat="46.48812268574509" lon="11.774166952914792"><ele>1811.142857142857</ele><time>2026-05-02T14:46:27.999Z</time></trkpt><trkpt lat="46.48819129967547" lon="11.774156620111485"><ele>1811.2857142857142</ele><time>2026-05-02T14:46:35Z</time></trkpt><trkpt lat="46.48825831083927" lon="11.774200785735943"><ele>1811.4285714285713</ele><time>2026-05-02T14:46:42Z</time></trkpt><trkpt lat="46.488325834147794" lon="11.774258931108909"><ele>1811.5714285714284</ele><time>2026-05-02T14:46:49Z</time></trkpt><trkpt lat="46.48838689502243" lon="11.774330394001792"><ele>1811.7142857142858</ele><time>2026-05-02T14:46:57Z</time></trkpt><trkpt lat="46.48844811700036" lon="11.77435197259077"><ele>1811.8571428571427</ele><time>2026-05-02T14:47:04Z</time></trkpt><trkpt lat="46.48850582144534" lon="11.774411245728807"><ele>1811.9999999999998</ele><time>2026-05-02T14:47:10Z</time></trkpt><trkpt lat="46.488574763412466" lon="11.774417930809197"><ele>1811.9999999999998</ele><time>2026-05-02T14:47:17Z</time></trkpt><trkpt lat="46.4886450818356" lon="11.774409350570647"><ele>1812.0</ele><time>2026-05-02T14:47:22Z</time></trkpt><trkpt lat="46.48870783640728" lon="11.774419404426393"><ele>1811.9999999999998</ele><time>2026-05-02T14:47:28Z</time></trkpt><trkpt lat="46.48877000934294" lon="11.774457349689017"><ele>1811.9999999999998</ele><time>2026-05-02T14:47:33Z</time></trkpt><trkpt lat="46.48882708553675" lon="11.774513292084576"><ele>1812.0</ele><time>2026-05-02T14:47:39Z</time></trkpt><trkpt lat="46.48886070513521" lon="11.774597787921232"><ele>1811.9999999999998</ele><time>2026-05-02T14:47:45Z</time></trkpt><trkpt lat="46.488921852062255" lon="11.774653066848591"><ele>1811.9999999999998</ele><time>2026-05-02T14:47:52Z</time></trkpt><trkpt lat="46.48899080156437" lon="11.77466798188793"><ele>1814.1428571428569</ele><time>2026-05-02T14:47:59Z</time></trkpt><trkpt lat="46.489060049768945" lon="11.77467539328558"><ele>1816.2857142857142</ele><time>2026-05-02T14:48:07Z</time></trkpt><trkpt lat="46.489124553626624" lon="11.774631356434057"><ele>1818.4285714285713</ele><time>2026-05-02T14:48:13Z</time></trkpt><trkpt lat="46.48918753108439" lon="11.774571621424457"><ele>1820.5714285714284</ele><time>2026-05-02T14:48:18Z</time></trkpt><trkpt lat="46.48925377431345" lon="11.774523981683938"><ele>1822.7142857142858</ele><time>2026-05-02T14:48:25Z</time></trkpt><trkpt lat="46.48931944407848" lon="11.774499754785793"><ele>1824.857142857143</ele><time>2026-05-02T14:48:30.999Z</time></trkpt><trkpt lat="46.48938487897578" lon="11.774481435953483"><ele>1827.0</ele><time>2026-05-02T14:48:35.999Z</time></trkpt><trkpt lat="46.48945254802574" lon="11.774449526333662"><ele>1827.0</ele><time>2026-05-02T14:48:41Z</time></trkpt><trkpt lat="46.489513353629185" lon="11.774424123850693"><ele>1827.0</ele><time>2026-05-02T14:48:49Z</time></trkpt><trkpt lat="46.489568824983095" lon="11.774360993648374"><ele>1827.0</ele><time>2026-05-02T14:48:58Z</time></trkpt><trkpt lat="46.48962778929866" lon="11.774310093701278"><ele>1827.0</ele><time>2026-05-02T14:49:04Z</time></trkpt><trkpt lat="46.48967288391129" lon="11.774229742239807"><ele>1827.0</ele><time>2026-05-02T14:49:12Z</time></trkpt><trkpt lat="46.48971167809215" lon="11.77415640197741"><ele>1827.0</ele><time>2026-05-02T14:49:19Z</time></trkpt><trkpt lat="46.489735364827496" lon="11.774068816172196"><ele>1827.0</ele><time>2026-05-02T14:49:28Z</time></trkpt><trkpt lat="46.48979029867062" lon="11.774023630459277"><ele>1830.142857142857</ele><time>2026-05-02T14:49:36Z</time></trkpt><trkpt lat="46.4898535642334" lon="11.773985626866994"><ele>1833.2857142857142</ele><time>2026-05-02T14:49:44Z</time></trkpt><trkpt lat="46.48989790241669" lon="11.773915079778035"><ele>1836.4285714285716</ele><time>2026-05-02T14:49:49Z</time></trkpt><trkpt lat="46.48996998410858" lon="11.773891805478584"><ele>1839.5714285714287</ele><time>2026-05-02T14:49:57Z</time></trkpt><trkpt lat="46.49005925238895" lon="11.7738979259893"><ele>1842.7142857142858</ele><time>2026-05-02T14:50:09Z</time></trkpt><trkpt lat="46.490117784301184" lon="11.773939923702029"><ele>1845.8571428571431</ele><time>2026-05-02T14:50:17Z</time></trkpt><trkpt lat="46.490174678327215" lon="11.773990443723616"><ele>1849.0000000000002</ele><time>2026-05-02T14:50:25Z</time></trkpt><trkpt lat="46.490232803076914" lon="11.774034297840894"><ele>1849.0000000000002</ele><time>2026-05-02T14:50:32Z</time></trkpt><trkpt lat="46.490296766472426" lon="11.774050538149817"><ele>1849.0</ele><time>2026-05-02T14:50:35.999Z</time></trkpt><trkpt lat="46.49036921166876" lon="11.774061736601501"><ele>1849.0000000000002</ele><time>2026-05-02T14:50:42.999Z</time></trkpt><trkpt lat="46.4904527720591" lon="11.77403741806757"><ele>1849.0000000000002</ele><time>2026-05-02T14:50:49.999Z</time></trkpt><trkpt lat="46.49052478432889" lon="11.774011055698066"><ele>1849.0</ele><time>2026-05-02T14:50:56Z</time></trkpt><trkpt lat="46.49059778438466" lon="11.774013206041637"><ele>1849.0000000000002</ele><time>2026-05-02T14:51:05Z</time></trkpt><trkpt lat="46.490666929148894" lon="11.774013438360846"><ele>1849.0000000000002</ele><time>2026-05-02T14:51:13Z</time></trkpt><trkpt lat="46.49073267754029" lon="11.774000474451595"><ele>1850.2857142857147</ele><time>2026-05-02T14:51:22Z</time></trkpt><trkpt lat="46.490799512796485" lon="11.773990634926431"><ele>1851.5714285714287</ele><time>2026-05-02T14:51:32Z</time></trkpt><trkpt lat="46.490869170696" lon="11.773972945843418"><ele>1852.8571428571431</ele><time>2026-05-02T14:51:40Z</time></trkpt><trkpt lat="46.490932705562805" lon="11.773953640456485"><ele>1854.1428571428573</ele><time>2026-05-02T14:51:49Z</time></trkpt><trkpt lat="46.4910080204221" lon="11.773924193483007"><ele>1855.4285714285716</ele><time>2026-05-02T14:51:55Z</time></trkpt><trkpt lat="46.491073969666616" lon="11.773894421416802"><ele>1856.7142857142858</ele><time>2026-05-02T14:52:03Z</time></trkpt><trkpt lat="46.49115028434223" lon="11.773874722466228"><ele>1858.0</ele><time>2026-05-02T14:52:16Z</time></trkpt><trkpt lat="46.491213925454296" lon="11.773833612194002"><ele>1857.857142857143</ele><time>2026-05-02T14:52:22Z</time></trkpt><trkpt lat="46.491267065050735" lon="11.773781307703578"><ele>1857.7142857142858</ele><time>2026-05-02T14:52:34Z</time></trkpt><trkpt lat="46.49130341911676" lon="11.77369428136131"><ele>1857.5714285714287</ele><time>2026-05-02T14:52:44.999Z</time></trkpt><trkpt lat="46.4913406454653" lon="11.77361790998022"><ele>1857.4285714285716</ele><time>2026-05-02T14:52:53.999Z</time></trkpt><trkpt lat="46.49141719598161" lon="11.773601102532181"><ele>1857.2857142857142</ele><time>2026-05-02T14:53:01Z</time></trkpt><trkpt lat="46.49148599912819" lon="11.773604675593308"><ele>1857.1428571428573</ele><time>2026-05-02T14:53:06Z</time></trkpt><trkpt lat="46.49148967687802" lon="11.773696449172245"><ele>1857.0</ele><time>2026-05-02T14:53:52Z</time></trkpt><trkpt lat="46.49154602575634" lon="11.773630585643996"><ele>1857.0</ele><time>2026-05-02T14:59:38.001Z</time></trkpt><trkpt lat="46.491598613509225" lon="11.773576898426517"><ele>1857.0</ele><time>2026-05-02T14:59:44.001Z</time></trkpt><trkpt lat="46.4916518959977" lon="11.773515134296408"><ele>1857.0</ele><time>2026-05-02T14:59:51.001Z</time></trkpt><trkpt lat="46.49170293006343" lon="11.773460921642954"><ele>1857.0</ele><time>2026-05-02T15:00:00.001Z</time></trkpt><trkpt lat="46.4917641029741" lon="11.773434226967815"><ele>1857.0</ele><time>2026-05-02T15:00:11.001Z</time></trkpt><trkpt lat="46.49179168129293" lon="11.773351092657878"><ele>1857.0</ele><time>2026-05-02T15:00:19.001Z</time></trkpt><trkpt lat="46.49181803286075" lon="11.77326616565077"><ele>1857.0</ele><time>2026-05-02T15:00:30.001Z</time></trkpt><trkpt lat="46.49183796206612" lon="11.773174290245098"><ele>1858.857142857143</ele><time>2026-05-02T15:00:40.001Z</time></trkpt><trkpt lat="46.49186248914554" lon="11.773081958065173"><ele>1860.7142857142858</ele><time>2026-05-02T15:00:54.001Z</time></trkpt><trkpt lat="46.4918809618156" lon="11.772986363817994"><ele>1862.5714285714287</ele><time>2026-05-02T15:01:04.001Z</time></trkpt><trkpt lat="46.49190546669604" lon="11.77289519772469"><ele>1864.4285714285716</ele><time>2026-05-02T15:01:13.001Z</time></trkpt><trkpt lat="46.49197150149158" lon="11.772845450228896"><ele>1866.2857142857142</ele><time>2026-05-02T15:01:37.001Z</time></trkpt><trkpt lat="46.4920185860126" lon="11.7727744481134"><ele>1868.1428571428573</ele><time>2026-05-02T15:01:45.001Z</time></trkpt><trkpt lat="46.49207489557415" lon="11.77271498491674"><ele>1870.0000000000002</ele><time>2026-05-02T15:01:55.001Z</time></trkpt><trkpt lat="46.492129973437635" lon="11.772660346731142"><ele>1874.2857142857147</ele><time>2026-05-02T15:02:01.001Z</time></trkpt><trkpt lat="46.49217087228357" lon="11.772590077206743"><ele>1878.5714285714287</ele><time>2026-05-02T15:02:10.001Z</time></trkpt><trkpt lat="46.49222755712109" lon="11.772534504043726"><ele>1882.8571428571431</ele><time>2026-05-02T15:02:27.001Z</time></trkpt><trkpt lat="46.49227058901419" lon="11.77245381170509"><ele>1887.1428571428573</ele><time>2026-05-02T15:02:37.001Z</time></trkpt><trkpt lat="46.492305104066595" lon="11.772365598922232"><ele>1891.4285714285716</ele><time>2026-05-02T15:02:49.001Z</time></trkpt><trkpt lat="46.49236131592646" lon="11.772292390708026"><ele>1895.7142857142858</ele><time>2026-05-02T15:03:07.001Z</time></trkpt><trkpt lat="46.49241256434737" lon="11.772237096266528"><ele>1900.0</ele><time>2026-05-02T15:03:21Z</time></trkpt><trkpt lat="46.49246357183726" lon="11.772161199492857"><ele>1900.0</ele><time>2026-05-02T15:03:30Z</time></trkpt><trkpt lat="46.492511325678755" lon="11.772069111324699"><ele>1900.0000000000002</ele><time>2026-05-02T15:03:40Z</time></trkpt><trkpt lat="46.492565111832405" lon="11.772007502917877"><ele>1900.0</ele><time>2026-05-02T15:03:44Z</time></trkpt><trkpt lat="46.492627291241064" lon="11.77195854713039"><ele>1900.0</ele><time>2026-05-02T15:03:54Z</time></trkpt><trkpt lat="46.49268831723906" lon="11.771907000594307"><ele>1900.0000000000002</ele><time>2026-05-02T15:04:05Z</time></trkpt><trkpt lat="46.49272591913471" lon="11.771830917614244"><ele>1900.0</ele><time>2026-05-02T15:04:13Z</time></trkpt><trkpt lat="46.49279207984862" lon="11.771804081101726"><ele>1900.0</ele><time>2026-05-02T15:04:19.001Z</time></trkpt><trkpt lat="46.49285730299547" lon="11.77185145171141"><ele>1900.857142857143</ele><time>2026-05-02T15:04:30.001Z</time></trkpt><trkpt lat="46.4929215805283" lon="11.771855106706331"><ele>1901.7142857142858</ele><time>2026-05-02T15:04:40.001Z</time></trkpt><trkpt lat="46.49298589356587" lon="11.771865232810239"><ele>1902.5714285714287</ele><time>2026-05-02T15:04:46.001Z</time></trkpt><trkpt lat="46.49305349662893" lon="11.771865873537942"><ele>1903.4285714285716</ele><time>2026-05-02T15:04:56.001Z</time></trkpt><trkpt lat="46.49311982983105" lon="11.771856778723055"><ele>1904.2857142857142</ele><time>2026-05-02T15:05:06.001Z</time></trkpt><trkpt lat="46.49318458955471" lon="11.771814714681495"><ele>1905.1428571428573</ele><time>2026-05-02T15:05:13.001Z</time></trkpt><trkpt lat="46.49324613833101" lon="11.77179172806405"><ele>1906.0</ele><time>2026-05-02T15:05:20.001Z</time></trkpt><trkpt lat="46.493299549218186" lon="11.771742959237889"><ele>1906.0</ele><time>2026-05-02T15:05:26.001Z</time></trkpt><trkpt lat="46.49336601073525" lon="11.771768880144412"><ele>1906.0</ele><time>2026-05-02T15:05:34.001Z</time></trkpt><trkpt lat="46.49343863795528" lon="11.771755265388036"><ele>1906.0</ele><time>2026-05-02T15:05:40.001Z</time></trkpt><trkpt lat="46.49350971452313" lon="11.771766717889555"><ele>1906.0</ele><time>2026-05-02T15:05:46Z</time></trkpt><trkpt lat="46.49357444253873" lon="11.771804695341018"><ele>1906.0</ele><time>2026-05-02T15:05:52Z</time></trkpt><trkpt lat="46.493630825053046" lon="11.771862229959853"><ele>1906.0</ele><time>2026-05-02T15:06:01Z</time></trkpt><trkpt lat="46.49368099342671" lon="11.771918297838369"><ele>1906.0</ele><time>2026-05-02T15:06:07Z</time></trkpt><trkpt lat="46.49375058429773" lon="11.77194167090768"><ele>1908.1428571428573</ele><time>2026-05-02T15:06:16.001Z</time></trkpt><trkpt lat="46.49380409965757" lon="11.771890298088982"><ele>1910.2857142857142</ele><time>2026-05-02T15:06:23.001Z</time></trkpt><trkpt lat="46.49387129233868" lon="11.771884949255503"><ele>1912.4285714285716</ele><time>2026-05-02T15:06:29.001Z</time></trkpt><trkpt lat="46.493926329630696" lon="11.771953418075926"><ele>1914.5714285714287</ele><time>2026-05-02T15:06:37.001Z</time></trkpt><trkpt lat="46.49397699855243" lon="11.771895591514996"><ele>1916.7142857142858</ele><time>2026-05-02T15:06:44.001Z</time></trkpt><trkpt lat="46.4940396581885" lon="11.77191152830473"><ele>1918.857142857143</ele><time>2026-05-02T15:06:50.001Z</time></trkpt><trkpt lat="46.49409559698556" lon="11.77196438297269"><ele>1921.0</ele><time>2026-05-02T15:06:55.001Z</time></trkpt><trkpt lat="46.49413129523818" lon="11.772044747864408"><ele>1921.0000000000002</ele><time>2026-05-02T15:07:13.001Z</time></trkpt><trkpt lat="46.494067373993765" lon="11.771996557401492"><ele>1921.0</ele><time>2026-05-02T15:07:26.001Z</time></trkpt><trkpt lat="46.494131419677316" lon="11.772123987877052"><ele>1921.0</ele><time>2026-05-02T15:08:01Z</time></trkpt><trkpt lat="46.49418495478594" lon="11.7720497046358"><ele>1921.0</ele><time>2026-05-02T15:08:41Z</time></trkpt><trkpt lat="46.49410679191016" lon="11.771958123219068"><ele>1921.0000000000002</ele><time>2026-05-02T15:09:50.001Z</time></trkpt><trkpt lat="46.49417215002132" lon="11.772019282036352"><ele>1921.0</ele><time>2026-05-02T15:09:59.001Z</time></trkpt><trkpt lat="46.49411447149988" lon="11.772065126585918"><ele>1921.0</ele><time>2026-05-02T15:10:11Z</time></trkpt><trkpt lat="46.49404623496353" lon="11.772074563124558"><ele>1921.0000000000002</ele><time>2026-05-02T15:10:20Z</time></trkpt><trkpt lat="46.494081553363436" lon="11.77218678434738"><ele>1921.0</ele><time>2026-05-02T15:10:25Z</time></trkpt><trkpt lat="46.494090904625054" lon="11.772297040353061"><ele>1921.0</ele><time>2026-05-02T15:10:27Z</time></trkpt><trkpt lat="46.49406593864222" lon="11.772398976609717"><ele>1921.0000000000002</ele><time>2026-05-02T15:10:36Z</time></trkpt><trkpt lat="46.494077573158" lon="11.77250124028041"><ele>1921.0</ele><time>2026-05-02T15:10:46Z</time></trkpt><trkpt lat="46.494065133913786" lon="11.772601426752662"><ele>1921.0</ele><time>2026-05-02T15:10:50Z</time></trkpt><trkpt lat="46.49401752849017" lon="11.772680005202979"><ele>1919.857142857143</ele><time>2026-05-02T15:10:58Z</time></trkpt><trkpt lat="46.494011863669286" lon="11.77278188224725"><ele>1918.7142857142858</ele><time>2026-05-02T15:11:06Z</time></trkpt><trkpt lat="46.4940327193723" lon="11.772876253637449"><ele>1917.5714285714287</ele><time>2026-05-02T15:11:10Z</time></trkpt><trkpt lat="46.49404224671872" lon="11.77298132058727"><ele>1916.4285714285716</ele><time>2026-05-02T15:11:14Z</time></trkpt><trkpt lat="46.49401503437467" lon="11.773079139601576"><ele>1915.2857142857142</ele><time>2026-05-02T15:11:18Z</time></trkpt><trkpt lat="46.49401466769026" lon="11.773183810857281"><ele>1914.1428571428573</ele><time>2026-05-02T15:11:22Z</time></trkpt><trkpt lat="46.49404439318078" lon="11.773280902333637"><ele>1913.0</ele><time>2026-05-02T15:11:29Z</time></trkpt><trkpt lat="46.49407776576553" lon="11.773362238492311"><ele>1913.0</ele><time>2026-05-02T15:11:36.001Z</time></trkpt><trkpt lat="46.49409030660287" lon="11.7734590102628"><ele>1913.0</ele><time>2026-05-02T15:11:45.001Z</time></trkpt><trkpt lat="46.49410746287133" lon="11.773551546447521"><ele>1913.0</ele><time>2026-05-02T15:11:49.001Z</time></trkpt><trkpt lat="46.49407604487866" lon="11.773635019952822"><ele>1913.0</ele><time>2026-05-02T15:11:56.001Z</time></trkpt><trkpt lat="46.49406645598331" lon="11.7737304145873"><ele>1913.0</ele><time>2026-05-02T15:12:00Z</time></trkpt><trkpt lat="46.494080356770134" lon="11.773824785743967"><ele>1913.0</ele><time>2026-05-02T15:12:04Z</time></trkpt><trkpt lat="46.4940834347022" lon="11.773918226927385"><ele>1913.0</ele><time>2026-05-02T15:12:08Z</time></trkpt><trkpt lat="46.4940728464846" lon="11.774011116582816"><ele>1910.5714285714287</ele><time>2026-05-02T15:12:14Z</time></trkpt><trkpt lat="46.49412072970628" lon="11.774082401709713"><ele>1908.1428571428569</ele><time>2026-05-02T15:12:20Z</time></trkpt><trkpt lat="46.49418105922379" lon="11.774118230223625"><ele>1905.7142857142856</ele><time>2026-05-02T15:12:24Z</time></trkpt><trkpt lat="46.49424584872666" lon="11.774128460604723"><ele>1903.2857142857142</ele><time>2026-05-02T15:12:29Z</time></trkpt><trkpt lat="46.494314852352865" lon="11.77415603254346"><ele>1900.8571428571427</ele><time>2026-05-02T15:12:38Z</time></trkpt><trkpt lat="46.49435689293835" lon="11.774234012274423"><ele>1898.428571428571</ele><time>2026-05-02T15:12:45Z</time></trkpt><trkpt lat="46.49440720367039" lon="11.774291864762917"><ele>1895.9999999999998</ele><time>2026-05-02T15:12:51Z</time></trkpt><trkpt lat="46.49445933010904" lon="11.774369578436648"><ele>1893.8571428571427</ele><time>2026-05-02T15:13:00Z</time></trkpt><trkpt lat="46.49448966132656" lon="11.774450257701638"><ele>1891.7142857142858</ele><time>2026-05-02T15:13:08Z</time></trkpt><trkpt lat="46.494517943344825" lon="11.774533104775506"><ele>1889.5714285714284</ele><time>2026-05-02T15:13:16Z</time></trkpt><trkpt lat="46.494553342789075" lon="11.774616923574138"><ele>1887.4285714285713</ele><time>2026-05-02T15:13:24Z</time></trkpt><trkpt lat="46.49458877197593" lon="11.774704288755995"><ele>1885.2857142857142</ele><time>2026-05-02T15:13:33Z</time></trkpt><trkpt lat="46.49462749966761" lon="11.774788045234322"><ele>1883.142857142857</ele><time>2026-05-02T15:13:42Z</time></trkpt><trkpt lat="46.494669040967" lon="11.774860598769068"><ele>1881.0</ele><time>2026-05-02T15:13:49Z</time></trkpt><trkpt lat="46.4947138485636" lon="11.774936088955245"><ele>1884.5714285714284</ele><time>2026-05-02T15:13:57Z</time></trkpt><trkpt lat="46.49476057464297" lon="11.775007277050648"><ele>1888.1428571428573</ele><time>2026-05-02T15:14:05Z</time></trkpt><trkpt lat="46.49481391781109" lon="11.775083232345498"><ele>1891.7142857142858</ele><time>2026-05-02T15:14:13Z</time></trkpt><trkpt lat="46.4948677625743" lon="11.775138705092315"><ele>1895.2857142857142</ele><time>2026-05-02T15:14:21Z</time></trkpt><trkpt lat="46.494912133179604" lon="11.77522388041808"><ele>1898.8571428571427</ele><time>2026-05-02T15:14:29Z</time></trkpt><trkpt lat="46.49498377166864" lon="11.775257110308049"><ele>1902.4285714285716</ele><time>2026-05-02T15:14:36Z</time></trkpt><trkpt lat="46.49500285927059" lon="11.775345261523277"><ele>1906.0</ele><time>2026-05-02T15:15:04Z</time></trkpt><trkpt lat="46.49506994211712" lon="11.775328720274324"><ele>1906.0000000000002</ele><time>2026-05-02T15:15:11Z</time></trkpt><trkpt lat="46.495120039666446" lon="11.775468097217862"><ele>1906.0</ele><time>2026-05-02T15:15:16Z</time></trkpt><trkpt lat="46.49517954124286" lon="11.775506506729208"><ele>1906.0</ele><time>2026-05-02T15:15:24Z</time></trkpt><trkpt lat="46.49523066015135" lon="11.775567445863206"><ele>1906.0</ele><time>2026-05-02T15:15:36Z</time></trkpt><trkpt lat="46.495270830402866" lon="11.77564467820044"><ele>1906.0000000000002</ele><time>2026-05-02T15:15:42Z</time></trkpt><trkpt lat="46.495269651529796" lon="11.775756956902537"><ele>1906.0</ele><time>2026-05-02T15:15:47Z</time></trkpt><trkpt lat="46.49531629456721" lon="11.775836865209223"><ele>1906.0</ele><time>2026-05-02T15:15:56Z</time></trkpt><trkpt lat="46.49537570115564" lon="11.775883406999144"><ele>1906.0</ele><time>2026-05-02T15:16:02Z</time></trkpt><trkpt lat="46.495427345736836" lon="11.775942959708095"><ele>1906.0</ele><time>2026-05-02T15:16:08Z</time></trkpt><trkpt lat="46.49547885913863" lon="11.77600650333953"><ele>1906.0</ele><time>2026-05-02T15:16:14Z</time></trkpt><trkpt lat="46.49554757857744" lon="11.776049279239356"><ele>1906.0</ele><time>2026-05-02T15:16:20Z</time></trkpt><trkpt lat="46.49560246174669" lon="11.776109715377565"><ele>1906.0</ele><time>2026-05-02T15:16:28Z</time></trkpt><trkpt lat="46.49566374204606" lon="11.776145932471318"><ele>1906.0</ele><time>2026-05-02T15:16:40Z</time></trkpt><trkpt lat="46.495696392785774" lon="11.776231299416285"><ele>1909.0</ele><time>2026-05-02T15:16:47Z</time></trkpt><trkpt lat="46.495733417976076" lon="11.776326001484211"><ele>1912.0</ele><time>2026-05-02T15:16:51Z</time></trkpt><trkpt lat="46.49580214010607" lon="11.776329989148309"><ele>1915.0</ele><time>2026-05-02T15:17:04Z</time></trkpt><trkpt lat="46.49585566039609" lon="11.776381296351861"><ele>1918.0</ele><time>2026-05-02T15:17:10Z</time></trkpt><trkpt lat="46.495919659942246" lon="11.776410431624061"><ele>1921.0</ele><time>2026-05-02T15:17:16Z</time></trkpt><trkpt lat="46.495971368749345" lon="11.776494419280965"><ele>1924.0</ele><time>2026-05-02T15:17:33Z</time></trkpt><trkpt lat="46.49603957541342" lon="11.776491464235768"><ele>1927.0</ele><time>2026-05-02T15:17:42Z</time></trkpt><trkpt lat="46.496102712130956" lon="11.77649777962319"><ele>1927.0</ele><time>2026-05-02T15:17:57Z</time></trkpt><trkpt lat="46.496054436860106" lon="11.776575515735253"><ele>1927.0</ele><time>2026-05-02T15:18:08Z</time></trkpt><trkpt lat="46.496122317216745" lon="11.776539073638174"><ele>1927.0</ele><time>2026-05-02T15:18:11Z</time></trkpt><trkpt lat="46.496206264292084" lon="11.776529154817773"><ele>1927.0</ele><time>2026-05-02T15:18:14Z</time></trkpt><trkpt lat="46.49623261619244" lon="11.776435335431612"><ele>1927.0</ele><time>2026-05-02T15:18:31Z</time></trkpt><trkpt lat="46.496262851987716" lon="11.776351508453688"><ele>1927.0</ele><time>2026-05-02T15:18:42Z</time></trkpt><trkpt lat="46.49632158786047" lon="11.776304306338268"><ele>1927.0</ele><time>2026-05-02T15:18:52Z</time></trkpt><trkpt lat="46.4962580785778" lon="11.776207019049242"><ele>1928.5714285714287</ele><time>2026-05-02T15:19:03Z</time></trkpt><trkpt lat="46.496275903869154" lon="11.776077913949518"><ele>1930.1428571428569</ele><time>2026-05-02T15:19:18Z</time></trkpt><trkpt lat="46.496348343674846" lon="11.776083645986851"><ele>1931.7142857142856</ele><time>2026-05-02T15:19:26Z</time></trkpt><trkpt lat="46.49641053256121" lon="11.77606415847429"><ele>1933.2857142857142</ele><time>2026-05-02T15:19:38Z</time></trkpt><trkpt lat="46.49647333717875" lon="11.776038978419312"><ele>1934.8571428571427</ele><time>2026-05-02T15:19:42.999Z</time></trkpt><trkpt lat="46.49648660317724" lon="11.775948182642058"><ele>1936.428571428571</ele><time>2026-05-02T15:20:01Z</time></trkpt><trkpt lat="46.49655142747271" lon="11.77591398618554"><ele>1937.9999999999998</ele><time>2026-05-02T15:20:10Z</time></trkpt><trkpt lat="46.49661547044265" lon="11.775874181517828"><ele>1941.8571428571427</ele><time>2026-05-02T15:20:27Z</time></trkpt><trkpt lat="46.4966283737454" lon="11.775764422887068"><ele>1945.7142857142858</ele><time>2026-05-02T15:20:37Z</time></trkpt><trkpt lat="46.49670044723445" lon="11.775747572418037"><ele>1949.5714285714284</ele><time>2026-05-02T15:20:43Z</time></trkpt><trkpt lat="46.49674621935169" lon="11.775681094061943"><ele>1953.4285714285713</ele><time>2026-05-02T15:20:52Z</time></trkpt><trkpt lat="46.496735448244394" lon="11.775581588922035"><ele>1957.2857142857142</ele><time>2026-05-02T15:20:57Z</time></trkpt><trkpt lat="46.496733727001136" lon="11.775482654272825"><ele>1961.142857142857</ele><time>2026-05-02T15:21:13Z</time></trkpt><trkpt lat="46.49678083148298" lon="11.775419019830082"><ele>1965.0</ele><time>2026-05-02T15:21:20Z</time></trkpt><trkpt lat="46.49682842037486" lon="11.775358445470257"><ele>1965.0</ele><time>2026-05-02T15:21:26Z</time></trkpt><trkpt lat="46.496890381872795" lon="11.775312313817192"><ele>1965.0</ele><time>2026-05-02T15:21:33.999Z</time></trkpt><trkpt lat="46.49695770671249" lon="11.775298086376518"><ele>1965.0</ele><time>2026-05-02T15:21:39.999Z</time></trkpt><trkpt lat="46.49702221765619" lon="11.775280333561277"><ele>1965.0</ele><time>2026-05-02T15:21:46.999Z</time></trkpt><trkpt lat="46.497057453884146" lon="11.775198070687724"><ele>1965.0</ele><time>2026-05-02T15:21:58.999Z</time></trkpt><trkpt lat="46.49711471279801" lon="11.775132555258391"><ele>1965.0</ele><time>2026-05-02T15:22:07Z</time></trkpt><trkpt lat="46.4971667589658" lon="11.77505548104954"><ele>1965.0</ele><time>2026-05-02T15:22:22Z</time></trkpt><trkpt lat="46.4972351295539" lon="11.775012680711963"><ele>1966.5714285714284</ele><time>2026-05-02T15:22:37Z</time></trkpt><trkpt lat="46.497310178455216" lon="11.774998892888927"><ele>1968.1428571428573</ele><time>2026-05-02T15:22:49Z</time></trkpt><trkpt lat="46.497394219839194" lon="11.77499393288255"><ele>1969.7142857142858</ele><time>2026-05-02T15:23:00Z</time></trkpt><trkpt lat="46.497435367757234" lon="11.774918660919486"><ele>1971.2857142857142</ele><time>2026-05-02T15:23:09Z</time></trkpt><trkpt lat="46.497499360986275" lon="11.774862875678483"><ele>1972.8571428571427</ele><time>2026-05-02T15:23:15Z</time></trkpt><trkpt lat="46.497536889765364" lon="11.774785771013095"><ele>1974.4285714285716</ele><time>2026-05-02T15:23:29Z</time></trkpt><trkpt lat="46.49760564199616" lon="11.774732696072633"><ele>1976.0</ele><time>2026-05-02T15:23:33Z</time></trkpt><trkpt lat="46.49764837330396" lon="11.774651667362999"><ele>1976.0</ele><time>2026-05-02T15:23:42Z</time></trkpt><trkpt lat="46.49770007250352" lon="11.774585311414368"><ele>1976.0</ele><time>2026-05-02T15:23:47Z</time></trkpt><trkpt lat="46.49776063569434" lon="11.77454896521568"><ele>1976.0</ele><time>2026-05-02T15:23:57Z</time></trkpt><trkpt lat="46.49782175296789" lon="11.774501896127479"><ele>1976.0</ele><time>2026-05-02T15:24:03.999Z</time></trkpt><trkpt lat="46.497861063334234" lon="11.774424207440795"><ele>1976.0</ele><time>2026-05-02T15:24:09.999Z</time></trkpt><trkpt lat="46.497894237660994" lon="11.774345455512472"><ele>1976.0</ele><time>2026-05-02T15:24:18Z</time></trkpt><trkpt lat="46.49790238123624" lon="11.774244075421736"><ele>1976.0</ele><time>2026-05-02T15:24:26Z</time></trkpt><trkpt lat="46.49789179013253" lon="11.774149421775032"><ele>1976.5714285714287</ele><time>2026-05-02T15:24:31Z</time></trkpt><trkpt lat="46.4979033699499" lon="11.77404500476956"><ele>1977.1428571428569</ele><time>2026-05-02T15:24:39Z</time></trkpt><trkpt lat="46.49794072004912" lon="11.773949846037617"><ele>1977.7142857142856</ele><time>2026-05-02T15:24:50Z</time></trkpt><trkpt lat="46.49794026231885" lon="11.773856427767079"><ele>1978.2857142857142</ele><time>2026-05-02T15:24:58Z</time></trkpt><trkpt lat="46.497974611776186" lon="11.77377001090833"><ele>1978.8571428571427</ele><time>2026-05-02T15:25:06Z</time></trkpt><trkpt lat="46.49800783417188" lon="11.77368600004061"><ele>1979.428571428571</ele><time>2026-05-02T15:25:14Z</time></trkpt><trkpt lat="46.49802305695654" lon="11.773592658335021"><ele>1979.9999999999998</ele><time>2026-05-02T15:25:20Z</time></trkpt><trkpt lat="46.49807517011713" lon="11.773530797753674"><ele>1981.7142857142853</ele><time>2026-05-02T15:25:28Z</time></trkpt><trkpt lat="46.498100185679455" lon="11.773440953408825"><ele>1983.4285714285713</ele><time>2026-05-02T15:25:36Z</time></trkpt><trkpt lat="46.49814069809497" lon="11.773365195280167"><ele>1985.1428571428569</ele><time>2026-05-02T15:25:42Z</time></trkpt><trkpt lat="46.498159016980324" lon="11.773275817095234"><ele>1986.8571428571427</ele><time>2026-05-02T15:25:50Z</time></trkpt><trkpt lat="46.49817539078027" lon="11.773181543054923"><ele>1988.5714285714284</ele><time>2026-05-02T15:25:57Z</time></trkpt><trkpt lat="46.498194952218704" lon="11.773078617663023"><ele>1990.2857142857142</ele><time>2026-05-02T15:26:06Z</time></trkpt><trkpt lat="46.49821424771216" lon="11.772986764241836"><ele>1992.0</ele><time>2026-05-02T15:26:12.999Z</time></trkpt><trkpt lat="46.49823914196068" lon="11.77290121299093"><ele>1992.0</ele><time>2026-05-02T15:26:21Z</time></trkpt><trkpt lat="46.49824370190295" lon="11.772807541538569"><ele>1991.9999999999998</ele><time>2026-05-02T15:26:58Z</time></trkpt><trkpt lat="46.498246763936585" lon="11.772710918327334"><ele>1992.0</ele><time>2026-05-02T15:27:05Z</time></trkpt><trkpt lat="46.49827052851067" lon="11.77262381505047"><ele>1992.0</ele><time>2026-05-02T15:27:12Z</time></trkpt><trkpt lat="46.498311947428604" lon="11.772548647783545"><ele>1991.9999999999998</ele><time>2026-05-02T15:27:20Z</time></trkpt><trkpt lat="46.49835749494598" lon="11.772479302504784"><ele>1992.0</ele><time>2026-05-02T15:27:45Z</time></trkpt><trkpt lat="46.498369006767675" lon="11.772381269000375"><ele>1992.0</ele><time>2026-05-02T15:27:53Z</time></trkpt><trkpt lat="46.49836339049811" lon="11.772282466046304"><ele>1993.4285714285713</ele><time>2026-05-02T15:28:00Z</time></trkpt><trkpt lat="46.49836096313355" lon="11.77218209873084"><ele>1994.8571428571427</ele><time>2026-05-02T15:28:08Z</time></trkpt><trkpt lat="46.4983276482227" lon="11.772079812449642"><ele>1996.2857142857142</ele><time>2026-05-02T15:28:36Z</time></trkpt><trkpt lat="46.49827526397504" lon="11.772148250961903"><ele>1997.7142857142858</ele><time>2026-05-02T15:28:44Z</time></trkpt><trkpt lat="46.49821267249441" lon="11.772183480328211"><ele>1999.142857142857</ele><time>2026-05-02T15:28:49Z</time></trkpt><trkpt lat="46.498157544061776" lon="11.772248943954802"><ele>2000.5714285714284</ele><time>2026-05-02T15:28:57Z</time></trkpt><trkpt lat="46.49809530652193" lon="11.772280011483492"><ele>2002.0</ele><time>2026-05-02T15:29:09Z</time></trkpt><trkpt lat="46.4980240348589" lon="11.77226625946582"><ele>2002.0</ele><time>2026-05-02T15:29:19Z</time></trkpt><trkpt lat="46.49795514875294" lon="11.772258630254612"><ele>2002.0</ele><time>2026-05-02T15:29:31Z</time></trkpt><trkpt lat="46.49788917539429" lon="11.772250838878712"><ele>2002.0</ele><time>2026-05-02T15:29:42Z</time></trkpt><trkpt lat="46.49783023895014" lon="11.772305837540529"><ele>2002.0</ele><time>2026-05-02T15:29:54Z</time></trkpt><trkpt lat="46.49777860186317" lon="11.772366226016855"><ele>2002.0</ele><time>2026-05-02T15:30:04Z</time></trkpt><trkpt lat="46.497719222980095" lon="11.772401563033114"><ele>2002.0</ele><time>2026-05-02T15:30:14.999Z</time></trkpt><trkpt lat="46.49765323138859" lon="11.772414192668286"><ele>2002.0</ele><time>2026-05-02T15:30:24.999Z</time></trkpt><trkpt lat="46.497597260635104" lon="11.772363566022708"><ele>2004.857142857143</ele><time>2026-05-02T15:30:36Z</time></trkpt><trkpt lat="46.497554439758616" lon="11.772285552741778"><ele>2007.7142857142858</ele><time>2026-05-02T15:30:44Z</time></trkpt><trkpt lat="46.49753444589504" lon="11.772192114451007"><ele>2010.5714285714284</ele><time>2026-05-02T15:30:51Z</time></trkpt><trkpt lat="46.49751747487098" lon="11.772103188890576"><ele>2013.4285714285713</ele><time>2026-05-02T15:30:58Z</time></trkpt><trkpt lat="46.4975000420413" lon="11.772011843558342"><ele>2016.2857142857142</ele><time>2026-05-02T15:31:06Z</time></trkpt><trkpt lat="46.4974814331102" lon="11.771923460101812"><ele>2019.1428571428569</ele><time>2026-05-02T15:31:13Z</time></trkpt><trkpt lat="46.497457715710944" lon="11.771827478834398"><ele>2021.9999999999998</ele><time>2026-05-02T15:31:21Z</time></trkpt><trkpt lat="46.497434990897055" lon="11.771730698039951"><ele>2022.5714285714284</ele><time>2026-05-02T15:31:39Z</time></trkpt><trkpt lat="46.49740844094461" lon="11.771646739370752"><ele>2023.142857142857</ele><time>2026-05-02T15:31:47Z</time></trkpt><trkpt lat="46.49737791174702" lon="11.771551895113658"><ele>2023.7142857142858</ele><time>2026-05-02T15:31:55Z</time></trkpt><trkpt lat="46.49735172551121" lon="11.771459444827856"><ele>2024.2857142857142</ele><time>2026-05-02T15:32:02Z</time></trkpt><trkpt lat="46.497322233830495" lon="11.771360725287092"><ele>2024.8571428571431</ele><time>2026-05-02T15:32:09.999Z</time></trkpt><trkpt lat="46.49729699811144" lon="11.77127566627002"><ele>2025.4285714285716</ele><time>2026-05-02T15:32:17.999Z</time></trkpt><trkpt lat="46.497269305518124" lon="11.771180695955694"><ele>2026.0</ele><time>2026-05-02T15:32:27.999Z</time></trkpt><trkpt lat="46.49724002191959" lon="11.771077792935477"><ele>2027.5714285714287</ele><time>2026-05-02T15:32:39Z</time></trkpt><trkpt lat="46.497214606534854" lon="11.770980802098254"><ele>2029.1428571428573</ele><time>2026-05-02T15:32:49Z</time></trkpt><trkpt lat="46.497191103467095" lon="11.770887843031316"><ele>2030.7142857142858</ele><time>2026-05-02T15:32:58Z</time></trkpt><trkpt lat="46.49716798800304" lon="11.770798609132544"><ele>2032.2857142857142</ele><time>2026-05-02T15:33:06Z</time></trkpt><trkpt lat="46.49715569538793" lon="11.770695151351752"><ele>2033.857142857143</ele><time>2026-05-02T15:33:16Z</time></trkpt><trkpt lat="46.49716060190025" lon="11.770600510089753"><ele>2035.4285714285716</ele><time>2026-05-02T15:33:53Z</time></trkpt><trkpt lat="46.497188214586465" lon="11.770510672777899"><ele>2037.0</ele><time>2026-05-02T15:34:03Z</time></trkpt><trkpt lat="46.49716458451482" lon="11.77041346615857"><ele>2037.0</ele><time>2026-05-02T15:34:19.999Z</time></trkpt><trkpt lat="46.49719747938705" lon="11.77031567940289"><ele>2037.0</ele><time>2026-05-02T15:35:49Z</time></trkpt><trkpt lat="46.49724592649948" lon="11.7702492829207"><ele>2037.0</ele><time>2026-05-02T15:35:58Z</time></trkpt><trkpt lat="46.49728832595483" lon="11.770180788728888"><ele>2037.0</ele><time>2026-05-02T15:36:07Z</time></trkpt><trkpt lat="46.49733556538324" lon="11.770110768087774"><ele>2037.0</ele><time>2026-05-02T15:36:16Z</time></trkpt><trkpt lat="46.497371906471976" lon="11.770028863043148"><ele>2037.0</ele><time>2026-05-02T15:36:26.999Z</time></trkpt><trkpt lat="46.49741843063577" lon="11.769962516454074"><ele>2037.0</ele><time>2026-05-02T15:36:40.999Z</time></trkpt><trkpt lat="46.497456876062124" lon="11.769884190572682"><ele>2038.142857142857</ele><time>2026-05-02T15:36:48Z</time></trkpt><trkpt lat="46.497496294167256" lon="11.769797919371387"><ele>2039.2857142857142</ele><time>2026-05-02T15:36:56Z</time></trkpt><trkpt lat="46.497537209914086" lon="11.769725094156648"><ele>2040.4285714285716</ele><time>2026-05-02T15:37:05Z</time></trkpt><trkpt lat="46.49757992943198" lon="11.769656839042806"><ele>2041.5714285714287</ele><time>2026-05-02T15:37:14Z</time></trkpt><trkpt lat="46.49762653420433" lon="11.769588324559969"><ele>2042.7142857142858</ele><time>2026-05-02T15:37:24Z</time></trkpt><trkpt lat="46.49766940519904" lon="11.769513769200797"><ele>2043.8571428571431</ele><time>2026-05-02T15:37:31Z</time></trkpt><trkpt lat="46.49771814911204" lon="11.769448035742723"><ele>2045.0000000000002</ele><time>2026-05-02T15:37:42Z</time></trkpt><trkpt lat="46.49776429245396" lon="11.769373270469707"><ele>2044.1428571428573</ele><time>2026-05-02T15:37:51Z</time></trkpt><trkpt lat="46.49780827268049" lon="11.769305083941585"><ele>2043.2857142857142</ele><time>2026-05-02T15:38:01Z</time></trkpt><trkpt lat="46.497857994120345" lon="11.769234350878174"><ele>2042.4285714285716</ele><time>2026-05-02T15:38:14Z</time></trkpt><trkpt lat="46.497897268144115" lon="11.769159836664198"><ele>2041.5714285714287</ele><time>2026-05-02T15:38:26Z</time></trkpt><trkpt lat="46.49792968420065" lon="11.769066582769979"><ele>2040.7142857142858</ele><time>2026-05-02T15:38:34.999Z</time></trkpt><trkpt lat="46.4979714947698" lon="11.76899300924653"><ele>2039.857142857143</ele><time>2026-05-02T15:38:43.999Z</time></trkpt><trkpt lat="46.49803261118748" lon="11.768961247676984"><ele>2039.0</ele><time>2026-05-02T15:38:53Z</time></trkpt><trkpt lat="46.49809863538805" lon="11.768969116062042"><ele>2042.2857142857142</ele><time>2026-05-02T15:39:08Z</time></trkpt><trkpt lat="46.49815116044461" lon="11.768909809400057"><ele>2045.5714285714284</ele><time>2026-05-02T15:39:23Z</time></trkpt><trkpt lat="46.49819218044652" lon="11.76883676121613"><ele>2048.8571428571427</ele><time>2026-05-02T15:39:36Z</time></trkpt><trkpt lat="46.49824474260517" lon="11.768773269861"><ele>2052.142857142857</ele><time>2026-05-02T15:39:57Z</time></trkpt><trkpt lat="46.49829687827732" lon="11.768703794259569"><ele>2055.428571428571</ele><time>2026-05-02T15:40:08Z</time></trkpt><trkpt lat="46.49833585668885" lon="11.768621274684692"><ele>2058.714285714286</ele><time>2026-05-02T15:40:19Z</time></trkpt><trkpt lat="46.498372509253166" lon="11.7685374736185"><ele>2062.0</ele><time>2026-05-02T15:40:28Z</time></trkpt><trkpt lat="46.49839087304639" lon="11.768449273396751"><ele>2062.285714285714</ele><time>2026-05-02T15:40:34.999Z</time></trkpt><trkpt lat="46.498420988040984" lon="11.768362093043375"><ele>2062.5714285714284</ele><time>2026-05-02T15:40:43.999Z</time></trkpt><trkpt lat="46.498457763105215" lon="11.768268259650712"><ele>2062.8571428571427</ele><time>2026-05-02T15:40:51.999Z</time></trkpt><trkpt lat="46.49848421836427" lon="11.76818207200871"><ele>2063.142857142857</ele><time>2026-05-02T15:40:57.999Z</time></trkpt><trkpt lat="46.498519096896025" lon="11.768090879985246"><ele>2063.4285714285716</ele><time>2026-05-02T15:41:05Z</time></trkpt><trkpt lat="46.49854373952691" lon="11.76800198866689"><ele>2063.7142857142853</ele><time>2026-05-02T15:41:12Z</time></trkpt><trkpt lat="46.498576677165346" lon="11.767917541161136"><ele>2064.0</ele><time>2026-05-02T15:41:20Z</time></trkpt><trkpt lat="46.49860796025543" lon="11.767828766752373"><ele>2063.9999999999995</ele><time>2026-05-02T15:41:27Z</time></trkpt><trkpt lat="46.49864360214828" lon="11.767740058639577"><ele>2064.0</ele><time>2026-05-02T15:41:34Z</time></trkpt><trkpt lat="46.498683756706626" lon="11.767653768376404"><ele>2064.0</ele><time>2026-05-02T15:41:48Z</time></trkpt><trkpt lat="46.49872111394776" lon="11.767565180070134"><ele>2064.0</ele><time>2026-05-02T15:41:56Z</time></trkpt><trkpt lat="46.49875539702783" lon="11.767477376302704"><ele>2064.0</ele><time>2026-05-02T15:42:03Z</time></trkpt><trkpt lat="46.49878455459087" lon="11.76739348530029"><ele>2063.9999999999995</ele><time>2026-05-02T15:42:10Z</time></trkpt><trkpt lat="46.49881670866516" lon="11.767314424983171"><ele>2064.0</ele><time>2026-05-02T15:42:17Z</time></trkpt><trkpt lat="46.498853462992834" lon="11.76722599652783"><ele>2066.5714285714284</ele><time>2026-05-02T15:42:24Z</time></trkpt><trkpt lat="46.49888994375992" lon="11.76714885712158"><ele>2069.142857142857</ele><time>2026-05-02T15:42:31Z</time></trkpt><trkpt lat="46.49892263125899" lon="11.767068294745595"><ele>2071.714285714286</ele><time>2026-05-02T15:42:37.999Z</time></trkpt><trkpt lat="46.49887111374967" lon="11.76712828265761"><ele>2074.285714285714</ele><time>2026-05-02T15:46:46Z</time></trkpt><trkpt lat="46.498924925237695" lon="11.767070246684437"><ele>2076.857142857143</ele><time>2026-05-02T15:47:17Z</time></trkpt><trkpt lat="46.49896178992767" lon="11.766991730810876"><ele>2079.4285714285716</ele><time>2026-05-02T15:47:25Z</time></trkpt><trkpt lat="46.499009756701504" lon="11.766918341537128"><ele>2082.0</ele><time>2026-05-02T15:47:33Z</time></trkpt><trkpt lat="46.49905523553044" lon="11.766843208326842"><ele>2083.0</ele><time>2026-05-02T15:48:14Z</time></trkpt><trkpt lat="46.49909545236941" lon="11.766761044766783"><ele>2084.0</ele><time>2026-05-02T15:48:23Z</time></trkpt><trkpt lat="46.49912170127014" lon="11.766671361145717"><ele>2085.0</ele><time>2026-05-02T15:48:30Z</time></trkpt><trkpt lat="46.49914716826876" lon="11.7665785410721"><ele>2086.0</ele><time>2026-05-02T15:48:37Z</time></trkpt><trkpt lat="46.49916587287032" lon="11.76648448586197"><ele>2087.0</ele><time>2026-05-02T15:48:44.999Z</time></trkpt><trkpt lat="46.49918660561399" lon="11.766389010937575"><ele>2088.0</ele><time>2026-05-02T15:49:15.999Z</time></trkpt><trkpt lat="46.499198448680914" lon="11.76629382889673"><ele>2089.0</ele><time>2026-05-02T15:49:23Z</time></trkpt><trkpt lat="46.49922568385487" lon="11.766208694318527"><ele>2089.0</ele><time>2026-05-02T15:49:37Z</time></trkpt><trkpt lat="46.49925515909418" lon="11.766123534411836"><ele>2089.0</ele><time>2026-05-02T15:49:49Z</time></trkpt><trkpt lat="46.49930633388672" lon="11.76605796898962"><ele>2089.0</ele><time>2026-05-02T15:49:57Z</time></trkpt><trkpt lat="46.49935489887517" lon="11.765982834736075"><ele>2089.0</ele><time>2026-05-02T15:50:12Z</time></trkpt><trkpt lat="46.49941690831683" lon="11.765917813930832"><ele>2089.0</ele><time>2026-05-02T15:50:21Z</time></trkpt><trkpt lat="46.49947133672549" lon="11.76585015803221"><ele>2089.0</ele><time>2026-05-02T15:50:29Z</time></trkpt><trkpt lat="46.49952083812697" lon="11.76578595793367"><ele>2089.0</ele><time>2026-05-02T15:50:35Z</time></trkpt><trkpt lat="46.49955466062363" lon="11.765700289667036"><ele>2089.0</ele><time>2026-05-02T15:50:42Z</time></trkpt><trkpt lat="46.49955132198627" lon="11.7655993525792"><ele>2089.0</ele><time>2026-05-02T15:50:48.999Z</time></trkpt><trkpt lat="46.49956188250333" lon="11.765502494558818"><ele>2089.0</ele><time>2026-05-02T15:50:57.999Z</time></trkpt><trkpt lat="46.499599657937445" lon="11.765423815550507"><ele>2089.0</ele><time>2026-05-02T15:51:05.999Z</time></trkpt><trkpt lat="46.49964806207979" lon="11.765341850473588"><ele>2089.0</ele><time>2026-05-02T15:51:12.999Z</time></trkpt><trkpt lat="46.49969423086602" lon="11.765262743373093"><ele>2089.0</ele><time>2026-05-02T15:51:21.999Z</time></trkpt><trkpt lat="46.499734160174114" lon="11.765190611021803"><ele>2089.0</ele><time>2026-05-02T15:51:29Z</time></trkpt><trkpt lat="46.49977953389484" lon="11.765108643325744"><ele>2094.1428571428573</ele><time>2026-05-02T15:51:40Z</time></trkpt><trkpt lat="46.49982278903332" lon="11.765031078673365"><ele>2099.2857142857147</ele><time>2026-05-02T15:51:48Z</time></trkpt><trkpt lat="46.49986480402956" lon="11.764959007415529"><ele>2104.4285714285716</ele><time>2026-05-02T15:51:56Z</time></trkpt><trkpt lat="46.49991679248168" lon="11.764875868923435"><ele>2109.5714285714284</ele><time>2026-05-02T15:52:03Z</time></trkpt><trkpt lat="46.49996427360204" lon="11.7648058203699"><ele>2114.7142857142853</ele><time>2026-05-02T15:52:11Z</time></trkpt><trkpt lat="46.50001234881567" lon="11.764746283729593"><ele>2119.8571428571427</ele><time>2026-05-02T15:52:18Z</time></trkpt><trkpt lat="46.50006565410019" lon="11.764692331486359"><ele>2125.0</ele><time>2026-05-02T15:52:25Z</time></trkpt><trkpt lat="46.500123054856395" lon="11.764643805762343"><ele>2125.0</ele><time>2026-05-02T15:52:33Z</time></trkpt><trkpt lat="46.50018396772884" lon="11.764597275631077"><ele>2125.0</ele><time>2026-05-02T15:52:40Z</time></trkpt><trkpt lat="46.50024460680473" lon="11.764552878257112"><ele>2125.0</ele><time>2026-05-02T15:52:47.999Z</time></trkpt><trkpt lat="46.500302542061824" lon="11.764500959454015"><ele>2125.0</ele><time>2026-05-02T15:52:53.999Z</time></trkpt><trkpt lat="46.50035780473534" lon="11.764427690243835"><ele>2125.0</ele><time>2026-05-02T15:52:59.999Z</time></trkpt><trkpt lat="46.5004131531134" lon="11.76437385211277"><ele>2125.0</ele><time>2026-05-02T15:53:06.999Z</time></trkpt><trkpt lat="46.50047217020871" lon="11.764303944849953"><ele>2125.0</ele><time>2026-05-02T15:53:12.999Z</time></trkpt><trkpt lat="46.500526039318714" lon="11.764233201929626"><ele>2127.142857142857</ele><time>2026-05-02T15:53:18.999Z</time></trkpt><trkpt lat="46.50055242238578" lon="11.764145156977682"><ele>2129.285714285714</ele><time>2026-05-02T15:53:23.999Z</time></trkpt><trkpt lat="46.500591171301764" lon="11.764057525739998"><ele>2131.4285714285716</ele><time>2026-05-02T15:53:29.999Z</time></trkpt><trkpt lat="46.50061689851873" lon="11.76397368593301"><ele>2133.5714285714284</ele><time>2026-05-02T15:53:36Z</time></trkpt><trkpt lat="46.50064791454303" lon="11.76389400684811"><ele>2135.714285714286</ele><time>2026-05-02T15:53:42Z</time></trkpt><trkpt lat="46.50068950696757" lon="11.763812223904255"><ele>2137.8571428571427</ele><time>2026-05-02T15:53:47Z</time></trkpt><trkpt lat="46.50074045563747" lon="11.763757604022723"><ele>2140.0</ele><time>2026-05-02T15:53:53Z</time></trkpt><trkpt lat="46.50078311840567" lon="11.763681655613148"><ele>2140.0</ele><time>2026-05-02T15:53:59Z</time></trkpt><trkpt lat="46.50083524028527" lon="11.763620257117994"><ele>2140.0</ele><time>2026-05-02T15:54:05Z</time></trkpt><trkpt lat="46.50088586594926" lon="11.763545640056071"><ele>2140.0</ele><time>2026-05-02T15:54:12Z</time></trkpt><trkpt lat="46.5009467927707" lon="11.76350236630635"><ele>2140.0</ele><time>2026-05-02T15:54:19Z</time></trkpt><trkpt lat="46.50101168709279" lon="11.763493781635596"><ele>2140.0</ele><time>2026-05-02T15:54:25Z</time></trkpt><trkpt lat="46.501076591581565" lon="11.763473925877108"><ele>2140.0</ele><time>2026-05-02T15:54:31Z</time></trkpt><trkpt lat="46.501148579892025" lon="11.763456963215566"><ele>2140.0</ele><time>2026-05-02T15:54:38Z</time></trkpt><trkpt lat="46.50121578366097" lon="11.763452271282917"><ele>2141.8571428571427</ele><time>2026-05-02T15:54:44Z</time></trkpt><trkpt lat="46.50127518078222" lon="11.763400402551152"><ele>2143.714285714286</ele><time>2026-05-02T15:54:53Z</time></trkpt><trkpt lat="46.50133030590561" lon="11.763321577428215"><ele>2145.5714285714284</ele><time>2026-05-02T15:55:00Z</time></trkpt><trkpt lat="46.50138768434809" lon="11.763281112941911"><ele>2147.4285714285716</ele><time>2026-05-02T15:55:06.999Z</time></trkpt><trkpt lat="46.50145247845434" lon="11.763249466534349"><ele>2149.285714285714</ele><time>2026-05-02T15:55:11.999Z</time></trkpt><trkpt lat="46.501516248749446" lon="11.76321209406516"><ele>2151.142857142857</ele><time>2026-05-02T15:55:17.999Z</time></trkpt><trkpt lat="46.50155073297079" lon="11.763134871295854"><ele>2153.0</ele><time>2026-05-02T15:55:22.999Z</time></trkpt><trkpt lat="46.50155984764286" lon="11.763042736708572"><ele>2153.0</ele><time>2026-05-02T15:55:28.999Z</time></trkpt><trkpt lat="46.50156829532549" lon="11.762940369622095"><ele>2153.0</ele><time>2026-05-02T15:55:35.999Z</time></trkpt><trkpt lat="46.501580988555084" lon="11.762847536575702"><ele>2153.0</ele><time>2026-05-02T15:55:42Z</time></trkpt><trkpt lat="46.50159887180477" lon="11.762755678373447"><ele>2153.0</ele><time>2026-05-02T15:55:48Z</time></trkpt><trkpt lat="46.50164813994414" lon="11.76267627598145"><ele>2153.0</ele><time>2026-05-02T15:55:56Z</time></trkpt><trkpt lat="46.50169887190983" lon="11.762605664145138"><ele>2153.0</ele><time>2026-05-02T15:56:02Z</time></trkpt><trkpt lat="46.50175177525623" lon="11.762537534389148"><ele>2153.0</ele><time>2026-05-02T15:56:09Z</time></trkpt><trkpt lat="46.5018103665648" lon="11.762503386025049"><ele>2150.0</ele><time>2026-05-02T15:56:15Z</time></trkpt><trkpt lat="46.501871032391584" lon="11.762427298793648"><ele>2147.0</ele><time>2026-05-02T15:56:22Z</time></trkpt><trkpt lat="46.501905407926266" lon="11.7623379678112"><ele>2144.0</ele><time>2026-05-02T15:56:28Z</time></trkpt><trkpt lat="46.50191716403275" lon="11.762246434845474"><ele>2141.0</ele><time>2026-05-02T15:56:33Z</time></trkpt><trkpt lat="46.501927842635446" lon="11.762154345869986"><ele>2138.0</ele><time>2026-05-02T15:56:38Z</time></trkpt><trkpt lat="46.501958099221085" lon="11.762055238040368"><ele>2135.0</ele><time>2026-05-02T15:56:45Z</time></trkpt><trkpt lat="46.50198050927829" lon="11.761966819384485"><ele>2132.0</ele><time>2026-05-02T15:56:50Z</time></trkpt><trkpt lat="46.50201513776114" lon="11.761886093001806"><ele>2130.285714285714</ele><time>2026-05-02T15:56:56Z</time></trkpt><trkpt lat="46.50204563904745" lon="11.761783342731524"><ele>2128.5714285714284</ele><time>2026-05-02T15:57:03Z</time></trkpt><trkpt lat="46.50208552798188" lon="11.76169503309882"><ele>2126.8571428571427</ele><time>2026-05-02T15:57:09.999Z</time></trkpt><trkpt lat="46.50212165782613" lon="11.76161159124116"><ele>2125.142857142857</ele><time>2026-05-02T15:57:15.999Z</time></trkpt><trkpt lat="46.502155800111595" lon="11.76152977151582"><ele>2123.4285714285716</ele><time>2026-05-02T15:57:21.999Z</time></trkpt><trkpt lat="46.5021834549338" lon="11.761438167741318"><ele>2121.7142857142853</ele><time>2026-05-02T15:57:27.999Z</time></trkpt><trkpt lat="46.502220649563846" lon="11.761349423515302"><ele>2120.0</ele><time>2026-05-02T15:57:33.999Z</time></trkpt><trkpt lat="46.502244503801116" lon="11.761253071157084"><ele>2123.7142857142853</ele><time>2026-05-02T15:57:39.999Z</time></trkpt><trkpt lat="46.50228365429584" lon="11.761170369331207"><ele>2127.4285714285716</ele><time>2026-05-02T15:57:47Z</time></trkpt><trkpt lat="46.50231493895342" lon="11.761088775800511"><ele>2131.142857142857</ele><time>2026-05-02T15:57:59Z</time></trkpt><trkpt lat="46.502350721587106" lon="11.76099757549725"><ele>2134.8571428571427</ele><time>2026-05-02T15:58:05Z</time></trkpt><trkpt lat="46.5023883151565" lon="11.760919726361678"><ele>2138.5714285714284</ele><time>2026-05-02T15:58:11Z</time></trkpt><trkpt lat="46.50241698321909" lon="11.760833722928584"><ele>2142.285714285714</ele><time>2026-05-02T15:58:18Z</time></trkpt><trkpt lat="46.50245261106651" lon="11.760756025340775"><ele>2146.0</ele><time>2026-05-02T15:58:28Z</time></trkpt><trkpt lat="46.502499830686496" lon="11.760677107004877"><ele>2146.0</ele><time>2026-05-02T15:58:36Z</time></trkpt><trkpt lat="46.50254492952878" lon="11.760600892330867"><ele>2146.0</ele><time>2026-05-02T15:58:44Z</time></trkpt><trkpt lat="46.502591493943925" lon="11.760514108874009"><ele>2146.0</ele><time>2026-05-02T15:58:51Z</time></trkpt><trkpt lat="46.5026444951703" lon="11.760436597280592"><ele>2146.0</ele><time>2026-05-02T15:58:58Z</time></trkpt><trkpt lat="46.50269093055221" lon="11.760366781792122"><ele>2146.0</ele><time>2026-05-02T15:59:06Z</time></trkpt><trkpt lat="46.5027417673763" lon="11.7603042250684"><ele>2146.0</ele><time>2026-05-02T15:59:14Z</time></trkpt><trkpt lat="46.50278704071802" lon="11.76022704262089"><ele>2146.0</ele><time>2026-05-02T15:59:34.999Z</time></trkpt><trkpt lat="46.502827399262706" lon="11.760153859748542"><ele>2144.285714285714</ele><time>2026-05-02T15:59:40.999Z</time></trkpt><trkpt lat="46.502868622166794" lon="11.760084215929123"><ele>2142.5714285714284</ele><time>2026-05-02T15:59:47.999Z</time></trkpt><trkpt lat="46.502917989730626" lon="11.760012568761026"><ele>2140.8571428571427</ele><time>2026-05-02T15:59:54Z</time></trkpt><trkpt lat="46.50297333609158" lon="11.759958588853282"><ele>2139.142857142857</ele><time>2026-05-02T16:00:00Z</time></trkpt><trkpt lat="46.503029029478256" lon="11.75988852513793"><ele>2137.4285714285716</ele><time>2026-05-02T16:00:07Z</time></trkpt><trkpt lat="46.50307464916664" lon="11.759816450718093"><ele>2135.7142857142853</ele><time>2026-05-02T16:00:14Z</time></trkpt><trkpt lat="46.50312634453612" lon="11.759743563000576"><ele>2134.0</ele><time>2026-05-02T16:00:21Z</time></trkpt><trkpt lat="46.503175038429035" lon="11.759679779961292"><ele>2135.142857142857</ele><time>2026-05-02T16:00:27Z</time></trkpt><trkpt lat="46.503226885735344" lon="11.759620341945348"><ele>2136.285714285714</ele><time>2026-05-02T16:00:34Z</time></trkpt><trkpt lat="46.503279582790505" lon="11.759557560131073"><ele>2137.4285714285716</ele><time>2026-05-02T16:02:05.999Z</time></trkpt><trkpt lat="46.50333569383886" lon="11.759494552563488"><ele>2138.5714285714284</ele><time>2026-05-02T16:02:24Z</time></trkpt><trkpt lat="46.50338756594721" lon="11.759429690304195"><ele>2139.714285714286</ele><time>2026-05-02T16:02:31Z</time></trkpt><trkpt lat="46.50343319809254" lon="11.759363014613621"><ele>2140.8571428571427</ele><time>2026-05-02T16:02:38Z</time></trkpt><trkpt lat="46.503475654015645" lon="11.75927516909622"><ele>2142.0</ele><time>2026-05-02T16:02:45Z</time></trkpt><trkpt lat="46.503538523902726" lon="11.759230916076058"><ele>2142.0</ele><time>2026-05-02T16:02:52Z</time></trkpt><trkpt lat="46.50359997606863" lon="11.75917364437782"><ele>2142.0</ele><time>2026-05-02T16:02:59Z</time></trkpt><trkpt lat="46.50365285154015" lon="11.759123588068336"><ele>2142.0</ele><time>2026-05-02T16:03:06Z</time></trkpt><trkpt lat="46.50370534215658" lon="11.759069196138341"><ele>2142.0</ele><time>2026-05-02T16:03:25Z</time></trkpt><trkpt lat="46.503768257538475" lon="11.759016147983656"><ele>2142.0</ele><time>2026-05-02T16:03:32Z</time></trkpt><trkpt lat="46.5038250598667" lon="11.758954427346096"><ele>2142.0</ele><time>2026-05-02T16:03:38Z</time></trkpt><trkpt lat="46.5038947887636" lon="11.75890551883342"><ele>2142.0</ele><time>2026-05-02T16:03:44.999Z</time></trkpt><trkpt lat="46.50395843846697" lon="11.758883245907588"><ele>2144.714285714286</ele><time>2026-05-02T16:03:50.999Z</time></trkpt><trkpt lat="46.504025721627535" lon="11.75885839830483"><ele>2147.4285714285716</ele><time>2026-05-02T16:03:56.999Z</time></trkpt><trkpt lat="46.50410101964797" lon="11.758868899604883"><ele>2150.142857142857</ele><time>2026-05-02T16:04:02.999Z</time></trkpt><trkpt lat="46.50416727330366" lon="11.758872296485094"><ele>2152.857142857143</ele><time>2026-05-02T16:04:08.999Z</time></trkpt><trkpt lat="46.504236815648774" lon="11.758881647767781"><ele>2155.5714285714284</ele><time>2026-05-02T16:04:14.999Z</time></trkpt><trkpt lat="46.50430059175781" lon="11.758872526780126"><ele>2158.285714285714</ele><time>2026-05-02T16:04:20.999Z</time></trkpt><trkpt lat="46.504369492626665" lon="11.758843037560318"><ele>2161.0</ele><time>2026-05-02T16:04:27.999Z</time></trkpt><trkpt lat="46.504439267397224" lon="11.758820235571468"><ele>2161.0</ele><time>2026-05-02T16:04:33.999Z</time></trkpt><trkpt lat="46.50450242419022" lon="11.758799132237655"><ele>2161.0</ele><time>2026-05-02T16:04:39.999Z</time></trkpt><trkpt lat="46.50458109629763" lon="11.758772314011244"><ele>2161.0</ele><time>2026-05-02T16:04:48Z</time></trkpt><trkpt lat="46.50463050580409" lon="11.758710744075698"><ele>2161.0</ele><time>2026-05-02T16:04:54Z</time></trkpt><trkpt lat="46.504647487640824" lon="11.758617383143427"><ele>2161.0</ele><time>2026-05-02T16:05:00Z</time></trkpt><trkpt lat="46.50465878253206" lon="11.758517286245294"><ele>2161.0</ele><time>2026-05-02T16:05:05Z</time></trkpt><trkpt lat="46.50465272915408" lon="11.758410472995578"><ele>2161.0</ele><time>2026-05-02T16:05:12Z</time></trkpt><trkpt lat="46.5046103491956" lon="11.758323970637438"><ele>2159.714285714286</ele><time>2026-05-02T16:05:18Z</time></trkpt><trkpt lat="46.50455466992377" lon="11.758263522058686"><ele>2158.4285714285716</ele><time>2026-05-02T16:05:24Z</time></trkpt><trkpt lat="46.50452927719321" lon="11.75817722803034"><ele>2157.1428571428573</ele><time>2026-05-02T16:05:31Z</time></trkpt><trkpt lat="46.50457263561409" lon="11.758102988533283"><ele>2155.857142857143</ele><time>2026-05-02T16:05:47Z</time></trkpt><trkpt lat="46.50463605022109" lon="11.758078963745088"><ele>2154.571428571429</ele><time>2026-05-02T16:05:53Z</time></trkpt><trkpt lat="46.50470201428685" lon="11.758059907460026"><ele>2153.285714285714</ele><time>2026-05-02T16:05:59Z</time></trkpt><trkpt lat="46.5047660890529" lon="11.758019928371123"><ele>2152.0</ele><time>2026-05-02T16:06:06Z</time></trkpt><trkpt lat="46.5048269747892" lon="11.757980862010063"><ele>2154.714285714286</ele><time>2026-05-02T16:06:13Z</time></trkpt><trkpt lat="46.50488754958786" lon="11.75793197450548"><ele>2157.4285714285716</ele><time>2026-05-02T16:06:21Z</time></trkpt><trkpt lat="46.50494565461303" lon="11.757880979265737"><ele>2160.1428571428573</ele><time>2026-05-02T16:06:28Z</time></trkpt><trkpt lat="46.50500255211515" lon="11.757832086461047"><ele>2162.857142857143</ele><time>2026-05-02T16:06:36Z</time></trkpt><trkpt lat="46.50506491864526" lon="11.757782816935622"><ele>2165.5714285714284</ele><time>2026-05-02T16:06:46Z</time></trkpt><trkpt lat="46.505126904988316" lon="11.757722190041855"><ele>2168.2857142857147</ele><time>2026-05-02T16:07:08Z</time></trkpt><trkpt lat="46.50518533019266" lon="11.7576829548234"><ele>2171.0</ele><time>2026-05-02T16:07:35Z</time></trkpt><trkpt lat="46.50524652018015" lon="11.757647875064182"><ele>2171.0000000000005</ele><time>2026-05-02T16:07:48Z</time></trkpt><trkpt lat="46.505307470328226" lon="11.7576204279075"><ele>2171.0</ele><time>2026-05-02T16:08:00Z</time></trkpt><trkpt lat="46.50536625122251" lon="11.757586067466566"><ele>2171.0</ele><time>2026-05-02T16:08:10Z</time></trkpt><trkpt lat="46.505431702377614" lon="11.757575304285977"><ele>2171.0</ele><time>2026-05-02T16:08:21.001Z</time></trkpt><trkpt lat="46.5054933144513" lon="11.757555234799556"><ele>2171.0</ele><time>2026-05-02T16:08:33.001Z</time></trkpt><trkpt lat="46.50555952324392" lon="11.757541591296299"><ele>2171.0000000000005</ele><time>2026-05-02T16:08:45Z</time></trkpt><trkpt lat="46.50561278876443" lon="11.75747819750151"><ele>2171.0</ele><time>2026-05-02T16:08:56Z</time></trkpt><trkpt lat="46.50566683589149" lon="11.757394656212504"><ele>2175.0000000000005</ele><time>2026-05-02T16:09:18Z</time></trkpt><trkpt lat="46.50571716850309" lon="11.757330837525473"><ele>2179.0</ele><time>2026-05-02T16:09:29Z</time></trkpt><trkpt lat="46.50575543622812" lon="11.757245823986628"><ele>2183.0</ele><time>2026-05-02T16:09:40Z</time></trkpt><trkpt lat="46.505792105986295" lon="11.757170906958772"><ele>2187.0</ele><time>2026-05-02T16:09:49Z</time></trkpt><trkpt lat="46.50581283875981" lon="11.757080978086734"><ele>2191.0</ele><time>2026-05-02T16:10:00Z</time></trkpt><trkpt lat="46.50586645274828" lon="11.756969415214561"><ele>2195.0000000000005</ele><time>2026-05-02T16:10:21Z</time></trkpt><trkpt lat="46.50589501182972" lon="11.756876856389399"><ele>2199.0</ele><time>2026-05-02T16:10:34.001Z</time></trkpt><trkpt lat="46.505938170792774" lon="11.75679661281889"><ele>2199.0000000000005</ele><time>2026-05-02T16:10:49Z</time></trkpt><trkpt lat="46.505972049907164" lon="11.756712616128155"><ele>2199.0</ele><time>2026-05-02T16:11:00Z</time></trkpt><trkpt lat="46.50602783675982" lon="11.756664879692238"><ele>2199.0</ele><time>2026-05-02T16:11:26Z</time></trkpt><trkpt lat="46.506046860482314" lon="11.756577237054685"><ele>2199.0</ele><time>2026-05-02T16:11:38Z</time></trkpt><trkpt lat="46.50603818817479" lon="11.756477092554482"><ele>2199.0</ele><time>2026-05-02T16:11:46Z</time></trkpt><trkpt lat="46.506025090999636" lon="11.756381668353423"><ele>2199.0000000000005</ele><time>2026-05-02T16:11:54Z</time></trkpt><trkpt lat="46.5060011228114" lon="11.756296753494215"><ele>2199.0</ele><time>2026-05-02T16:12:01Z</time></trkpt><trkpt lat="46.505961405689945" lon="11.75621633600463"><ele>2199.0000000000005</ele><time>2026-05-02T16:12:09Z</time></trkpt><trkpt lat="46.50593744910313" lon="11.75613125779744"><ele>2199.0</ele><time>2026-05-02T16:12:16Z</time></trkpt><trkpt lat="46.50592292405174" lon="11.756034661536303"><ele>2199.0</ele><time>2026-05-02T16:12:24Z</time></trkpt><trkpt lat="46.50589251899717" lon="11.755942332606745"><ele>2199.0</ele><time>2026-05-02T16:12:32.001Z</time></trkpt><trkpt lat="46.50588471756292" lon="11.75583179159367"><ele>2199.0</ele><time>2026-05-02T16:13:00Z</time></trkpt><trkpt lat="46.505840636772554" lon="11.755763051524138"><ele>2199.0000000000005</ele><time>2026-05-02T16:13:06Z</time></trkpt><trkpt lat="46.50578123100943" lon="11.755706703114235"><ele>2199.0</ele><time>2026-05-02T16:13:13Z</time></trkpt><trkpt lat="46.50572848066518" lon="11.755640841735243"><ele>2200.571428571429</ele><time>2026-05-02T16:13:19Z</time></trkpt><trkpt lat="46.505675838947695" lon="11.755588552542598"><ele>2202.1428571428573</ele><time>2026-05-02T16:13:25Z</time></trkpt><trkpt lat="46.505627238271124" lon="11.755520231296668"><ele>2203.714285714286</ele><time>2026-05-02T16:13:31Z</time></trkpt><trkpt lat="46.505574993192766" lon="11.755444785963682"><ele>2205.2857142857147</ele><time>2026-05-02T16:13:37Z</time></trkpt><trkpt lat="46.505524434327214" lon="11.755377481159002"><ele>2206.857142857143</ele><time>2026-05-02T16:13:43Z</time></trkpt><trkpt lat="46.50546403092143" lon="11.755320742063844"><ele>2208.4285714285716</ele><time>2026-05-02T16:13:49Z</time></trkpt><trkpt lat="46.505414693783614" lon="11.755254737632692"><ele>2210.0</ele><time>2026-05-02T16:13:55Z</time></trkpt><trkpt lat="46.50537168516555" lon="11.755182473321831"><ele>2210.0</ele><time>2026-05-02T16:14:01Z</time></trkpt><trkpt lat="46.50532816360311" lon="11.755110157969595"><ele>2210.0</ele><time>2026-05-02T16:14:07Z</time></trkpt><trkpt lat="46.505283563175475" lon="11.755035710419358"><ele>2210.0</ele><time>2026-05-02T16:14:13Z</time></trkpt><trkpt lat="46.50524633413171" lon="11.754948517623554"><ele>2210.0</ele><time>2026-05-02T16:14:19Z</time></trkpt><trkpt lat="46.50521936184445" lon="11.754857085175859"><ele>2210.0</ele><time>2026-05-02T16:14:25Z</time></trkpt><trkpt lat="46.5051926827788" lon="11.754762370828768"><ele>2210.0</ele><time>2026-05-02T16:14:32Z</time></trkpt><trkpt lat="46.505182577519896" lon="11.75467167732208"><ele>2210.0</ele><time>2026-05-02T16:14:38Z</time></trkpt><trkpt lat="46.50516354878329" lon="11.754578035963409"><ele>2210.0</ele><time>2026-05-02T16:14:44Z</time></trkpt><trkpt lat="46.505137777649466" lon="11.754488511569141"><ele>2210.0</ele><time>2026-05-02T16:14:50Z</time></trkpt><trkpt lat="46.505100097731365" lon="11.754397752895295"><ele>2210.0</ele><time>2026-05-02T16:14:56Z</time></trkpt><trkpt lat="46.50505688552853" lon="11.754314509980176"><ele>2210.0</ele><time>2026-05-02T16:15:02Z</time></trkpt><trkpt lat="46.50502331481457" lon="11.754231835928586"><ele>2210.0</ele><time>2026-05-02T16:15:07Z</time></trkpt><trkpt lat="46.50498417854183" lon="11.754140264375508"><ele>2210.0</ele><time>2026-05-02T16:15:13Z</time></trkpt><trkpt lat="46.50493848486283" lon="11.754063645303978"><ele>2210.0</ele><time>2026-05-02T16:15:19Z</time></trkpt><trkpt lat="46.50489463505045" lon="11.753985483087778"><ele>2211.0</ele><time>2026-05-02T16:15:25Z</time></trkpt><trkpt lat="46.50485030801132" lon="11.753906764078522"><ele>2212.0</ele><time>2026-05-02T16:15:33Z</time></trkpt><trkpt lat="46.504815271437415" lon="11.753830146664274"><ele>2213.0</ele><time>2026-05-02T16:15:39Z</time></trkpt><trkpt lat="46.50477655548596" lon="11.75374747596123"><ele>2214.0</ele><time>2026-05-02T16:15:45Z</time></trkpt><trkpt lat="46.50474016187337" lon="11.75366050880405"><ele>2215.0</ele><time>2026-05-02T16:15:51Z</time></trkpt><trkpt lat="46.504703093456826" lon="11.753585308747981"><ele>2216.0</ele><time>2026-05-02T16:15:56Z</time></trkpt><trkpt lat="46.50466335278374" lon="11.753495872783736"><ele>2217.0</ele><time>2026-05-02T16:16:02Z</time></trkpt><trkpt lat="46.50462956976023" lon="11.753418397254539"><ele>2216.4285714285716</ele><time>2026-05-02T16:16:07Z</time></trkpt><trkpt lat="46.50460166020182" lon="11.753333426867611"><ele>2215.857142857143</ele><time>2026-05-02T16:16:12Z</time></trkpt><trkpt lat="46.50456179797465" lon="11.75324440282748"><ele>2215.2857142857147</ele><time>2026-05-02T16:16:17.999Z</time></trkpt><trkpt lat="46.504531043817764" lon="11.753147888653734"><ele>2214.714285714286</ele><time>2026-05-02T16:16:23.999Z</time></trkpt><trkpt lat="46.50448773111289" lon="11.753071548393308"><ele>2214.1428571428573</ele><time>2026-05-02T16:17:00Z</time></trkpt><trkpt lat="46.50444491402251" lon="11.75300367878222"><ele>2213.571428571429</ele><time>2026-05-02T16:17:10Z</time></trkpt><trkpt lat="46.504402575653614" lon="11.752921103924953"><ele>2213.0</ele><time>2026-05-02T16:17:16Z</time></trkpt><trkpt lat="46.504356242092896" lon="11.752854594247502"><ele>2213.0000000000005</ele><time>2026-05-02T16:17:22Z</time></trkpt><trkpt lat="46.50429959477887" lon="11.752784798755378"><ele>2213.0</ele><time>2026-05-02T16:17:29Z</time></trkpt><trkpt lat="46.50424266189778" lon="11.752743736604302"><ele>2213.0</ele><time>2026-05-02T16:17:35Z</time></trkpt><trkpt lat="46.504187107350084" lon="11.75269220894973"><ele>2213.0</ele><time>2026-05-02T16:17:41Z</time></trkpt><trkpt lat="46.50412980404105" lon="11.752633677397842"><ele>2213.0</ele><time>2026-05-02T16:17:47Z</time></trkpt><trkpt lat="46.50408149644786" lon="11.75256537738837"><ele>2213.0000000000005</ele><time>2026-05-02T16:17:53Z</time></trkpt><trkpt lat="46.50403458143237" lon="11.752490409568264"><ele>2213.0</ele><time>2026-05-02T16:17:58.999Z</time></trkpt><trkpt lat="46.50399004103719" lon="11.752409991928783"><ele>2214.571428571429</ele><time>2026-05-02T16:18:05.999Z</time></trkpt><trkpt lat="46.50395900719411" lon="11.75231972136971"><ele>2216.1428571428573</ele><time>2026-05-02T16:18:11.999Z</time></trkpt><trkpt lat="46.5039273506129" lon="11.752221679672374"><ele>2217.714285714286</ele><time>2026-05-02T16:18:17.999Z</time></trkpt><trkpt lat="46.50389645457996" lon="11.752140456301602"><ele>2219.2857142857147</ele><time>2026-05-02T16:18:22.999Z</time></trkpt><trkpt lat="46.50386165242906" lon="11.752043038453508"><ele>2220.857142857143</ele><time>2026-05-02T16:18:28.999Z</time></trkpt><trkpt lat="46.503831150133564" lon="11.751961864330037"><ele>2222.4285714285716</ele><time>2026-05-02T16:18:33.999Z</time></trkpt><trkpt lat="46.5037933626979" lon="11.75188371850577"><ele>2224.0</ele><time>2026-05-02T16:18:39.999Z</time></trkpt><trkpt lat="46.50374218140116" lon="11.75182628786625"><ele>2224.285714285714</ele><time>2026-05-02T16:18:45.999Z</time></trkpt><trkpt lat="46.50368933697301" lon="11.75176785574649"><ele>2224.5714285714284</ele><time>2026-05-02T16:18:52Z</time></trkpt><trkpt lat="46.50362821766134" lon="11.751729161851282"><ele>2224.857142857143</ele><time>2026-05-02T16:18:59Z</time></trkpt><trkpt lat="46.50356530582304" lon="11.751696583139871"><ele>2225.142857142857</ele><time>2026-05-02T16:19:07Z</time></trkpt><trkpt lat="46.50349840544655" lon="11.751696655035275"><ele>2225.4285714285716</ele><time>2026-05-02T16:19:13Z</time></trkpt><trkpt lat="46.50343699489943" lon="11.75174858990465"><ele>2225.714285714286</ele><time>2026-05-02T16:19:19Z</time></trkpt><trkpt lat="46.50337612229943" lon="11.751795199502912"><ele>2226.0</ele><time>2026-05-02T16:19:26Z</time></trkpt><trkpt lat="46.50331029308843" lon="11.751835518072493"><ele>2226.0</ele><time>2026-05-02T16:19:34Z</time></trkpt><trkpt lat="46.50324636710814" lon="11.751829549620771"><ele>2226.0</ele><time>2026-05-02T16:19:41Z</time></trkpt><trkpt lat="46.503179257703714" lon="11.751828395012298"><ele>2226.0</ele><time>2026-05-02T16:19:49Z</time></trkpt><trkpt lat="46.5031140929466" lon="11.751795663338752"><ele>2226.0</ele><time>2026-05-02T16:19:56Z</time></trkpt><trkpt lat="46.50305150504126" lon="11.751764579530851"><ele>2226.0</ele><time>2026-05-02T16:20:02.999Z</time></trkpt><trkpt lat="46.50300798408498" lon="11.751697841050214"><ele>2226.0</ele><time>2026-05-02T16:20:10.999Z</time></trkpt><trkpt lat="46.502952608602925" lon="11.751650740982152"><ele>2226.0</ele><time>2026-05-02T16:20:18.999Z</time></trkpt><trkpt lat="46.50290509221231" lon="11.751587702438592"><ele>2226.8571428571427</ele><time>2026-05-02T16:20:25.999Z</time></trkpt><trkpt lat="46.50285350203321" lon="11.751521105469093"><ele>2227.714285714286</ele><time>2026-05-02T16:20:33.999Z</time></trkpt><trkpt lat="46.502806822527525" lon="11.751457309786625"><ele>2228.5714285714284</ele><time>2026-05-02T16:20:40.999Z</time></trkpt><trkpt lat="46.50275555463454" lon="11.751402349919257"><ele>2229.4285714285716</ele><time>2026-05-02T16:20:48.999Z</time></trkpt><trkpt lat="46.502704811300326" lon="11.751341599471184"><ele>2230.285714285714</ele><time>2026-05-02T16:20:57Z</time></trkpt><trkpt lat="46.502649351970234" lon="11.751287352780803"><ele>2231.142857142857</ele><time>2026-05-02T16:21:11Z</time></trkpt><trkpt lat="46.50259868137895" lon="11.75136425815474"><ele>2232.0</ele><time>2026-05-02T16:21:30Z</time></trkpt><trkpt lat="46.5025800032869" lon="11.751469948503267"><ele>2231.9999999999995</ele><time>2026-05-02T16:21:46Z</time></trkpt><trkpt lat="46.5025743947107" lon="11.751567840677845"><ele>2232.0</ele><time>2026-05-02T16:21:53Z</time></trkpt><trkpt lat="46.50257689484329" lon="11.751673091169437"><ele>2232.0</ele><time>2026-05-02T16:21:59Z</time></trkpt><trkpt lat="46.502568643507175" lon="11.75177168424772"><ele>2232.0</ele><time>2026-05-02T16:22:05Z</time></trkpt><trkpt lat="46.502551805978406" lon="11.75187706642729"><ele>2232.0</ele><time>2026-05-02T16:22:11Z</time></trkpt><trkpt lat="46.502534357872705" lon="11.751979168562581"><ele>2231.9999999999995</ele><time>2026-05-02T16:22:17Z</time></trkpt><trkpt lat="46.50250780384727" lon="11.752065535181677"><ele>2232.0</ele><time>2026-05-02T16:22:22Z</time></trkpt><trkpt lat="46.50247251776322" lon="11.752143309838925"><ele>2231.285714285714</ele><time>2026-05-02T16:22:27Z</time></trkpt><trkpt lat="46.50241598057876" lon="11.752198532774633"><ele>2230.5714285714284</ele><time>2026-05-02T16:22:34.999Z</time></trkpt><trkpt lat="46.50235734449391" lon="11.752244811740438"><ele>2229.857142857143</ele><time>2026-05-02T16:22:40.999Z</time></trkpt><trkpt lat="46.50228639712874" lon="11.752262544435972"><ele>2229.142857142857</ele><time>2026-05-02T16:22:46.999Z</time></trkpt><trkpt lat="46.50222288772547" lon="11.752246123885852"><ele>2228.4285714285716</ele><time>2026-05-02T16:22:51.999Z</time></trkpt><trkpt lat="46.5021591712788" lon="11.75223513004335"><ele>2227.714285714286</ele><time>2026-05-02T16:22:57.999Z</time></trkpt><trkpt lat="46.50209477086085" lon="11.752220237180088"><ele>2227.0</ele><time>2026-05-02T16:23:04Z</time></trkpt><trkpt lat="46.50202509222582" lon="11.75221013942624"><ele>2227.0000000000005</ele><time>2026-05-02T16:23:10Z</time></trkpt><trkpt lat="46.50196084146116" lon="11.752254451919484"><ele>2227.0</ele><time>2026-05-02T16:23:17Z</time></trkpt><trkpt lat="46.501931191439624" lon="11.752340679331125"><ele>2227.0</ele><time>2026-05-02T16:23:23Z</time></trkpt><trkpt lat="46.50191047592372" lon="11.752430105125375"><ele>2227.0</ele><time>2026-05-02T16:23:29Z</time></trkpt><trkpt lat="46.501878352165626" lon="11.752519149989963"><ele>2227.0</ele><time>2026-05-02T16:23:41Z</time></trkpt><trkpt lat="46.50186701688582" lon="11.752613389906962"><ele>2227.0000000000005</ele><time>2026-05-02T16:23:47Z</time></trkpt><trkpt lat="46.501868568230094" lon="11.752716787927044"><ele>2227.0</ele><time>2026-05-02T16:23:53Z</time></trkpt><trkpt lat="46.50186205651914" lon="11.752827043821334"><ele>2225.571428571429</ele><time>2026-05-02T16:23:59Z</time></trkpt><trkpt lat="46.50185461797337" lon="11.752927146788958"><ele>2224.1428571428573</ele><time>2026-05-02T16:24:05Z</time></trkpt><trkpt lat="46.5018396551754" lon="11.75303114383354"><ele>2222.714285714286</ele><time>2026-05-02T16:24:13Z</time></trkpt><trkpt lat="46.501826189494174" lon="11.753123795531494"><ele>2221.2857142857147</ele><time>2026-05-02T16:24:20Z</time></trkpt><trkpt lat="46.50183163715535" lon="11.753232824379541"><ele>2219.857142857143</ele><time>2026-05-02T16:24:27Z</time></trkpt><trkpt lat="46.501833304541776" lon="11.75332712647508"><ele>2218.4285714285716</ele><time>2026-05-02T16:24:32Z</time></trkpt><trkpt lat="46.50184527164847" lon="11.753430752871173"><ele>2217.0</ele><time>2026-05-02T16:24:38Z</time></trkpt><trkpt lat="46.50184873992676" lon="11.753539425878456"><ele>2215.285714285714</ele><time>2026-05-02T16:24:44Z</time></trkpt><trkpt lat="46.501858538316974" lon="11.753645250181481"><ele>2213.5714285714284</ele><time>2026-05-02T16:24:49.999Z</time></trkpt><trkpt lat="46.501867718027846" lon="11.753737916409245"><ele>2211.857142857143</ele><time>2026-05-02T16:24:54.999Z</time></trkpt><trkpt lat="46.50188468601827" lon="11.753837759754214"><ele>2210.142857142857</ele><time>2026-05-02T16:24:59.999Z</time></trkpt><trkpt lat="46.501878535961936" lon="11.753937294865962"><ele>2208.4285714285716</ele><time>2026-05-02T16:25:46Z</time></trkpt><trkpt lat="46.501911831889075" lon="11.754026367728683"><ele>2206.714285714286</ele><time>2026-05-02T16:26:23Z</time></trkpt><trkpt lat="46.501929047303335" lon="11.75413054631985"><ele>2205.0</ele><time>2026-05-02T16:26:29Z</time></trkpt><trkpt lat="46.50194341722177" lon="11.754229338661393"><ele>2205.0</ele><time>2026-05-02T16:26:35Z</time></trkpt><trkpt lat="46.501942740188476" lon="11.754332282863354"><ele>2205.0</ele><time>2026-05-02T16:26:41Z</time></trkpt><trkpt lat="46.50194055201956" lon="11.754435991866078"><ele>2205.0</ele><time>2026-05-02T16:26:46Z</time></trkpt><trkpt lat="46.50196191655131" lon="11.75452611489478"><ele>2205.0</ele><time>2026-05-02T16:26:51Z</time></trkpt><trkpt lat="46.50199003465667" lon="11.75462145170451"><ele>2205.0</ele><time>2026-05-02T16:26:55.999Z</time></trkpt><trkpt lat="46.501988155125474" lon="11.754726894097676"><ele>2205.0</ele><time>2026-05-02T16:27:01.999Z</time></trkpt><trkpt lat="46.5020085224352" lon="11.754829095293177"><ele>2205.0</ele><time>2026-05-02T16:27:07.999Z</time></trkpt><trkpt lat="46.50200518726753" lon="11.754933979480915"><ele>2202.8571428571427</ele><time>2026-05-02T16:27:13Z</time></trkpt><trkpt lat="46.50199909661494" lon="11.75503675052276"><ele>2200.714285714286</ele><time>2026-05-02T16:27:19Z</time></trkpt><trkpt lat="46.501936137565295" lon="11.755054606702634"><ele>2198.5714285714284</ele><time>2026-05-02T16:27:24Z</time></trkpt><trkpt lat="46.50191396506549" lon="11.75514841439464"><ele>2196.4285714285716</ele><time>2026-05-02T16:27:36Z</time></trkpt><trkpt lat="46.501913590159745" lon="11.755247156318442"><ele>2194.285714285714</ele><time>2026-05-02T16:27:43Z</time></trkpt><trkpt lat="46.50191211967208" lon="11.755345149614056"><ele>2192.142857142857</ele><time>2026-05-02T16:27:49Z</time></trkpt><trkpt lat="46.50189999501505" lon="11.755448081614"><ele>2190.0</ele><time>2026-05-02T16:27:55Z</time></trkpt><trkpt lat="46.5019000156139" lon="11.755547480544813"><ele>2186.8571428571427</ele><time>2026-05-02T16:28:07Z</time></trkpt><trkpt lat="46.5018982820916" lon="11.755641988755256"><ele>2183.714285714286</ele><time>2026-05-02T16:28:25Z</time></trkpt><trkpt lat="46.501893759881746" lon="11.755747338282466"><ele>2180.5714285714284</ele><time>2026-05-02T16:28:30.999Z</time></trkpt><trkpt lat="46.5018795778056" lon="11.755842099798246"><ele>2177.4285714285716</ele><time>2026-05-02T16:28:36.999Z</time></trkpt><trkpt lat="46.50188098632146" lon="11.755944238109784"><ele>2174.285714285714</ele><time>2026-05-02T16:28:42.999Z</time></trkpt><trkpt lat="46.50187442953642" lon="11.756037598743024"><ele>2171.142857142857</ele><time>2026-05-02T16:28:47.999Z</time></trkpt><trkpt lat="46.5018740061868" lon="11.756132951530057"><ele>2168.0</ele><time>2026-05-02T16:28:53.999Z</time></trkpt><trkpt lat="46.50189335014663" lon="11.756226091398592"><ele>2164.5714285714284</ele><time>2026-05-02T16:29:07.999Z</time></trkpt><trkpt lat="46.50188727034728" lon="11.756323546102637"><ele>2161.1428571428573</ele><time>2026-05-02T16:29:15.999Z</time></trkpt><trkpt lat="46.501893168391604" lon="11.756421143045888"><ele>2157.714285714286</ele><time>2026-05-02T16:29:42Z</time></trkpt><trkpt lat="46.50188282150665" lon="11.756515340312653"><ele>2154.285714285714</ele><time>2026-05-02T16:29:48Z</time></trkpt><trkpt lat="46.50188173117944" lon="11.756617774779068"><ele>2150.8571428571427</ele><time>2026-05-02T16:29:54Z</time></trkpt><trkpt lat="46.501871187621354" lon="11.756709170193481"><ele>2147.4285714285716</ele><time>2026-05-02T16:30:05Z</time></trkpt><trkpt lat="46.50187154067237" lon="11.756816327550453"><ele>2144.0</ele><time>2026-05-02T16:30:11Z</time></trkpt><trkpt lat="46.50187081065706" lon="11.756910430843554"><ele>2141.285714285714</ele><time>2026-05-02T16:30:16Z</time></trkpt><trkpt lat="46.501868893432366" lon="11.757015815061582"><ele>2138.5714285714284</ele><time>2026-05-02T16:30:22Z</time></trkpt><trkpt lat="46.50181962278118" lon="11.757093788701887"><ele>2135.8571428571427</ele><time>2026-05-02T16:30:32Z</time></trkpt><trkpt lat="46.50176452575114" lon="11.757159361970599"><ele>2133.142857142857</ele><time>2026-05-02T16:30:36.999Z</time></trkpt><trkpt lat="46.50171050323468" lon="11.757213934710812"><ele>2130.428571428571</ele><time>2026-05-02T16:30:41.999Z</time></trkpt><trkpt lat="46.50165486649912" lon="11.757257535173206"><ele>2127.714285714286</ele><time>2026-05-02T16:30:46.999Z</time></trkpt><trkpt lat="46.50160491356194" lon="11.757326313086654"><ele>2125.0</ele><time>2026-05-02T16:30:52.999Z</time></trkpt><trkpt lat="46.50154530329808" lon="11.757366962599251"><ele>2125.0</ele><time>2026-05-02T16:30:58.999Z</time></trkpt><trkpt lat="46.501523084119455" lon="11.757453100434835"><ele>2125.0</ele><time>2026-05-02T16:31:04.999Z</time></trkpt><trkpt lat="46.50149733822209" lon="11.75754397531149"><ele>2125.0</ele><time>2026-05-02T16:31:10.999Z</time></trkpt><trkpt lat="46.501452683695454" lon="11.757618456894482"><ele>2125.0</ele><time>2026-05-02T16:31:16.999Z</time></trkpt><trkpt lat="46.50141198901862" lon="11.7576987356253"><ele>2125.0</ele><time>2026-05-02T16:31:23Z</time></trkpt><trkpt lat="46.50136380351667" lon="11.757772269771369"><ele>2125.0</ele><time>2026-05-02T16:31:31Z</time></trkpt><trkpt lat="46.50131494758008" lon="11.757844766921956"><ele>2125.0</ele><time>2026-05-02T16:31:47Z</time></trkpt><trkpt lat="46.50130163117007" lon="11.757934389549446"><ele>2123.714285714286</ele><time>2026-05-02T16:31:52Z</time></trkpt><trkpt lat="46.50125164020846" lon="11.758017655478216"><ele>2122.428571428571</ele><time>2026-05-02T16:31:58Z</time></trkpt><trkpt lat="46.50121510113927" lon="11.758094819843683"><ele>2121.142857142857</ele><time>2026-05-02T16:32:03Z</time></trkpt><trkpt lat="46.501179413348936" lon="11.758187690594067"><ele>2119.8571428571427</ele><time>2026-05-02T16:32:09Z</time></trkpt><trkpt lat="46.50113811358904" lon="11.758259612798547"><ele>2118.5714285714284</ele><time>2026-05-02T16:32:14Z</time></trkpt><trkpt lat="46.50110290798564" lon="11.758351019303241"><ele>2117.285714285714</ele><time>2026-05-02T16:32:22Z</time></trkpt><trkpt lat="46.50108037936482" lon="11.758450326017375"><ele>2116.0</ele><time>2026-05-02T16:32:28Z</time></trkpt><trkpt lat="46.50102661718782" lon="11.758511407566536"><ele>2116.0</ele><time>2026-05-02T16:32:35Z</time></trkpt><trkpt lat="46.500962404582104" lon="11.758523490670413"><ele>2116.0</ele><time>2026-05-02T16:32:44Z</time></trkpt><trkpt lat="46.500906792101134" lon="11.758581744540173"><ele>2116.0</ele><time>2026-05-02T16:32:51.999Z</time></trkpt><trkpt lat="46.5008479874289" lon="11.758633232181069"><ele>2116.0</ele><time>2026-05-02T16:32:58.999Z</time></trkpt><trkpt lat="46.50078701476203" lon="11.758699260473954"><ele>2116.0</ele><time>2026-05-02T16:33:05.999Z</time></trkpt><trkpt lat="46.500729383984435" lon="11.758739418382893"><ele>2116.0</ele><time>2026-05-02T16:33:11.999Z</time></trkpt><trkpt lat="46.50066105603766" lon="11.758763882958373"><ele>2116.0</ele><time>2026-05-02T16:33:18.999Z</time></trkpt><trkpt lat="46.50060036704534" lon="11.758824947305243"><ele>2114.4285714285716</ele><time>2026-05-02T16:33:24.999Z</time></trkpt><trkpt lat="46.50054024110824" lon="11.758865517699482"><ele>2112.8571428571427</ele><time>2026-05-02T16:33:31Z</time></trkpt><trkpt lat="46.500477828719966" lon="11.758927498852108"><ele>2111.285714285714</ele><time>2026-05-02T16:33:38Z</time></trkpt><trkpt lat="46.500431758852365" lon="11.75899267826677"><ele>2109.714285714286</ele><time>2026-05-02T16:33:44Z</time></trkpt><trkpt lat="46.500382881541306" lon="11.759064745908786"><ele>2108.1428571428573</ele><time>2026-05-02T16:33:50Z</time></trkpt><trkpt lat="46.500337396073455" lon="11.7591372683844"><ele>2106.5714285714284</ele><time>2026-05-02T16:33:55Z</time></trkpt><trkpt lat="46.50028479189361" lon="11.759198511417795"><ele>2105.0</ele><time>2026-05-02T16:34:01Z</time></trkpt><trkpt lat="46.50024371729125" lon="11.759277597593488"><ele>2105.0</ele><time>2026-05-02T16:34:07Z</time></trkpt><trkpt lat="46.50020083183324" lon="11.75934696020346"><ele>2105.0</ele><time>2026-05-02T16:34:12Z</time></trkpt><trkpt lat="46.50015001604865" lon="11.759405350863952"><ele>2105.0</ele><time>2026-05-02T16:34:18Z</time></trkpt><trkpt lat="46.50009946499213" lon="11.75947942440161"><ele>2105.0</ele><time>2026-05-02T16:34:24Z</time></trkpt><trkpt lat="46.50005605138562" lon="11.759554169479603"><ele>2105.0</ele><time>2026-05-02T16:34:30Z</time></trkpt><trkpt lat="46.50000672904279" lon="11.759613311998686"><ele>2105.0</ele><time>2026-05-02T16:34:37Z</time></trkpt><trkpt lat="46.499961298675416" lon="11.75968111988262"><ele>2105.0</ele><time>2026-05-02T16:34:44Z</time></trkpt><trkpt lat="46.499910484886776" lon="11.759752444751708"><ele>2103.4285714285716</ele><time>2026-05-02T16:34:50.999Z</time></trkpt><trkpt lat="46.49985621135915" lon="11.759825039900301"><ele>2101.857142857143</ele><time>2026-05-02T16:34:56.999Z</time></trkpt><trkpt lat="46.49980634601572" lon="11.759899550773794"><ele>2100.2857142857147</ele><time>2026-05-02T16:35:04.999Z</time></trkpt><trkpt lat="46.49975136578306" lon="11.759964702586403"><ele>2098.714285714286</ele><time>2026-05-02T16:35:10.999Z</time></trkpt><trkpt lat="46.49969807331064" lon="11.760018866740705"><ele>2097.1428571428573</ele><time>2026-05-02T16:35:15.999Z</time></trkpt><trkpt lat="46.49964282313054" lon="11.760069808882442"><ele>2095.571428571429</ele><time>2026-05-02T16:35:21.999Z</time></trkpt><trkpt lat="46.49958829177274" lon="11.76012323412682"><ele>2094.0</ele><time>2026-05-02T16:35:27.999Z</time></trkpt><trkpt lat="46.499532610037505" lon="11.760170182254685"><ele>2091.1428571428573</ele><time>2026-05-02T16:35:33.999Z</time></trkpt><trkpt lat="46.499481464093186" lon="11.760226101274574"><ele>2088.285714285714</ele><time>2026-05-02T16:35:40Z</time></trkpt><trkpt lat="46.49942808928911" lon="11.76028882997557"><ele>2085.4285714285716</ele><time>2026-05-02T16:35:47Z</time></trkpt><trkpt lat="46.49936720889483" lon="11.760349369827393"><ele>2082.5714285714284</ele><time>2026-05-02T16:35:53Z</time></trkpt><trkpt lat="46.499316723571965" lon="11.760417847142879"><ele>2079.714285714286</ele><time>2026-05-02T16:36:00Z</time></trkpt><trkpt lat="46.499257362076456" lon="11.760482417531824"><ele>2076.857142857143</ele><time>2026-05-02T16:36:07Z</time></trkpt><trkpt lat="46.49920036759313" lon="11.760551960555674"><ele>2074.0</ele><time>2026-05-02T16:36:13Z</time></trkpt><trkpt lat="46.499145170427035" lon="11.760614275120979"><ele>2074.0</ele><time>2026-05-02T16:36:19Z</time></trkpt><trkpt lat="46.49909114378987" lon="11.760669485676932"><ele>2074.0</ele><time>2026-05-02T16:36:25Z</time></trkpt><trkpt lat="46.499041514642826" lon="11.760740994930252"><ele>2074.0</ele><time>2026-05-02T16:36:31Z</time></trkpt><trkpt lat="46.4989829858187" lon="11.760784173837518"><ele>2074.0</ele><time>2026-05-02T16:36:37Z</time></trkpt><trkpt lat="46.49893677671976" lon="11.760852598800131"><ele>2074.0</ele><time>2026-05-02T16:36:44Z</time></trkpt><trkpt lat="46.49887966938948" lon="11.760892064276064"><ele>2074.0</ele><time>2026-05-02T16:36:51Z</time></trkpt><trkpt lat="46.498831103038114" lon="11.760963610185497"><ele>2074.0</ele><time>2026-05-02T16:36:58Z</time></trkpt><trkpt lat="46.4987780929898" lon="11.761032450907065"><ele>2073.5714285714284</ele><time>2026-05-02T16:37:06Z</time></trkpt><trkpt lat="46.4987249959641" lon="11.761092198504901"><ele>2073.142857142857</ele><time>2026-05-02T16:37:12.999Z</time></trkpt><trkpt lat="46.498670949715475" lon="11.76113998967364"><ele>2072.7142857142853</ele><time>2026-05-02T16:37:18.999Z</time></trkpt><trkpt lat="46.49862808388019" lon="11.761219223377426"><ele>2072.285714285714</ele><time>2026-05-02T16:37:24.999Z</time></trkpt><trkpt lat="46.49857198458545" lon="11.761284092904456"><ele>2071.8571428571427</ele><time>2026-05-02T16:37:30.999Z</time></trkpt><trkpt lat="46.49854324059889" lon="11.761375678202121"><ele>2071.428571428571</ele><time>2026-05-02T16:37:37.999Z</time></trkpt><trkpt lat="46.49853431982566" lon="11.761478332607862"><ele>2071.0</ele><time>2026-05-02T16:37:44Z</time></trkpt><trkpt lat="46.49848922391274" lon="11.761562768225021"><ele>2070.9999999999995</ele><time>2026-05-02T16:37:50Z</time></trkpt><trkpt lat="46.49844870305213" lon="11.761638637662461"><ele>2071.0</ele><time>2026-05-02T16:37:57Z</time></trkpt><trkpt lat="46.498407707250394" lon="11.761712993085752"><ele>2071.0</ele><time>2026-05-02T16:38:02Z</time></trkpt><trkpt lat="46.498382918435745" lon="11.761797369543778"><ele>2071.0</ele><time>2026-05-02T16:38:07Z</time></trkpt><trkpt lat="46.49833646652041" lon="11.761859253218791"><ele>2071.0</ele><time>2026-05-02T16:38:12Z</time></trkpt><trkpt lat="46.498304509019306" lon="11.761944646175426"><ele>2070.9999999999995</ele><time>2026-05-02T16:38:18Z</time></trkpt><trkpt lat="46.498262498516205" lon="11.76201812056773"><ele>2071.0</ele><time>2026-05-02T16:38:23Z</time></trkpt><trkpt lat="46.49823066588645" lon="11.762103422934047"><ele>2068.428571428571</ele><time>2026-05-02T16:38:28Z</time></trkpt><trkpt lat="46.49819082445388" lon="11.762195062466235"><ele>2065.8571428571427</ele><time>2026-05-02T16:38:34Z</time></trkpt><trkpt lat="46.498153118551286" lon="11.762272328825809"><ele>2063.285714285714</ele><time>2026-05-02T16:38:39Z</time></trkpt><trkpt lat="46.4981052582639" lon="11.762355774359197"><ele>2060.7142857142853</ele><time>2026-05-02T16:38:45Z</time></trkpt><trkpt lat="46.498061479807404" lon="11.762431539113539"><ele>2058.142857142857</ele><time>2026-05-02T16:38:51Z</time></trkpt><trkpt lat="46.4980195593042" lon="11.76250408838945"><ele>2055.5714285714284</ele><time>2026-05-02T16:38:56Z</time></trkpt><trkpt lat="46.4979790213502" lon="11.762574244982368"><ele>2053.0</ele><time>2026-05-02T16:39:01Z</time></trkpt><trkpt lat="46.497936968997955" lon="11.762646931999955"><ele>2052.0</ele><time>2026-05-02T16:39:06Z</time></trkpt><trkpt lat="46.49788765703946" lon="11.76273148917405"><ele>2051.0</ele><time>2026-05-02T16:39:12Z</time></trkpt><trkpt lat="46.4978460787864" lon="11.762802784946416"><ele>2050.0</ele><time>2026-05-02T16:39:16.999Z</time></trkpt><trkpt lat="46.497805399841255" lon="11.76287354703673"><ele>2049.0</ele><time>2026-05-02T16:39:21.999Z</time></trkpt><trkpt lat="46.49776208704154" lon="11.762952514909086"><ele>2048.0</ele><time>2026-05-02T16:39:27.999Z</time></trkpt><trkpt lat="46.49771813400207" lon="11.763032649086512"><ele>2047.0</ele><time>2026-05-02T16:39:33.999Z</time></trkpt><trkpt lat="46.49767717869675" lon="11.763112090267093"><ele>2046.0</ele><time>2026-05-02T16:39:40.999Z</time></trkpt><trkpt lat="46.497620753091084" lon="11.763189701887603"><ele>2046.0</ele><time>2026-05-02T16:39:50Z</time></trkpt><trkpt lat="46.497584620500135" lon="11.763269767011321"><ele>2046.0</ele><time>2026-05-02T16:39:58Z</time></trkpt><trkpt lat="46.49754245072582" lon="11.763359193709745"><ele>2046.0</ele><time>2026-05-02T16:40:05Z</time></trkpt><trkpt lat="46.497501044563506" lon="11.763428710720161"><ele>2046.0</ele><time>2026-05-02T16:40:11Z</time></trkpt><trkpt lat="46.49746473586614" lon="11.763514284751858"><ele>2046.0</ele><time>2026-05-02T16:40:18Z</time></trkpt><trkpt lat="46.497415113256544" lon="11.763586514855708"><ele>2046.0</ele><time>2026-05-02T16:40:26Z</time></trkpt><trkpt lat="46.49736899228291" lon="11.763673056672985"><ele>2046.0</ele><time>2026-05-02T16:40:34Z</time></trkpt><trkpt lat="46.497312919798716" lon="11.763745775873232"><ele>2043.4285714285716</ele><time>2026-05-02T16:40:42Z</time></trkpt><trkpt lat="46.49728157766233" lon="11.763825934582325"><ele>2040.8571428571427</ele><time>2026-05-02T16:40:49Z</time></trkpt><trkpt lat="46.49725333176195" lon="11.763913259795524"><ele>2038.2857142857142</ele><time>2026-05-02T16:40:55Z</time></trkpt><trkpt lat="46.497229348988185" lon="11.764009744043106"><ele>2035.7142857142858</ele><time>2026-05-02T16:41:03.999Z</time></trkpt><trkpt lat="46.49720887263409" lon="11.764097323215532"><ele>2033.1428571428573</ele><time>2026-05-02T16:41:10.999Z</time></trkpt><trkpt lat="46.49718832253248" lon="11.764185217827269"><ele>2030.5714285714284</ele><time>2026-05-02T16:41:17.999Z</time></trkpt><trkpt lat="46.49716630576199" lon="11.764278203990585"><ele>2028.0</ele><time>2026-05-02T16:41:23.999Z</time></trkpt><trkpt lat="46.497141608619295" lon="11.764364947560031"><ele>2027.8571428571427</ele><time>2026-05-02T16:41:29.999Z</time></trkpt><trkpt lat="46.497114029346605" lon="11.764456603438846"><ele>2027.7142857142858</ele><time>2026-05-02T16:41:35.999Z</time></trkpt><trkpt lat="46.49708845092482" lon="11.764541609677098"><ele>2027.5714285714284</ele><time>2026-05-02T16:41:41.999Z</time></trkpt><trkpt lat="46.49706208032079" lon="11.76463479619387"><ele>2027.4285714285713</ele><time>2026-05-02T16:41:47.999Z</time></trkpt><trkpt lat="46.497037966327134" lon="11.764722809099048"><ele>2027.2857142857142</ele><time>2026-05-02T16:41:55Z</time></trkpt><trkpt lat="46.49701402701516" lon="11.764817808760887"><ele>2027.142857142857</ele><time>2026-05-02T16:42:02Z</time></trkpt><trkpt lat="46.49698913226312" lon="11.764916301615914"><ele>2027.0</ele><time>2026-05-02T16:42:08Z</time></trkpt><trkpt lat="46.49696467136027" lon="11.765018443962136"><ele>2027.0</ele><time>2026-05-02T16:42:14Z</time></trkpt><trkpt lat="46.49694363044193" lon="11.765108508799658"><ele>2026.9999999999998</ele><time>2026-05-02T16:42:29Z</time></trkpt><trkpt lat="46.496919321904414" lon="11.765206816525492"><ele>2027.0</ele><time>2026-05-02T16:42:35Z</time></trkpt><trkpt lat="46.49689474616081" lon="11.765298361155025"><ele>2027.0</ele><time>2026-05-02T16:42:41Z</time></trkpt><trkpt lat="46.496865057534244" lon="11.765395486591958"><ele>2026.9999999999998</ele><time>2026-05-02T16:42:47Z</time></trkpt><trkpt lat="46.49683389928783" lon="11.76547710049837"><ele>2027.0</ele><time>2026-05-02T16:42:52Z</time></trkpt><trkpt lat="46.496795428530795" lon="11.765563517538693"><ele>2027.0</ele><time>2026-05-02T16:42:59Z</time></trkpt><trkpt lat="46.49675678483533" lon="11.765650917208237"><ele>2024.8571428571427</ele><time>2026-05-02T16:43:05Z</time></trkpt><trkpt lat="46.49672219682921" lon="11.765733537139488"><ele>2022.7142857142856</ele><time>2026-05-02T16:43:11Z</time></trkpt><trkpt lat="46.496687607683995" lon="11.765816159824038"><ele>2020.5714285714284</ele><time>2026-05-02T16:43:17Z</time></trkpt><trkpt lat="46.49664921567299" lon="11.765907866392398"><ele>2018.4285714285716</ele><time>2026-05-02T16:43:23Z</time></trkpt><trkpt lat="46.49661140680229" lon="11.765998179964292"><ele>2016.2857142857144</ele><time>2026-05-02T16:43:28.999Z</time></trkpt><trkpt lat="46.49657513255803" lon="11.766087594605642"><ele>2014.1428571428573</ele><time>2026-05-02T16:43:34.999Z</time></trkpt><trkpt lat="46.49653918434976" lon="11.766179990492722"><ele>2012.0</ele><time>2026-05-02T16:43:40.999Z</time></trkpt><trkpt lat="46.49650746946767" lon="11.7662631361511"><ele>2011.9999999999998</ele><time>2026-05-02T16:43:45.999Z</time></trkpt><trkpt lat="46.49647193584452" lon="11.766356660845249"><ele>2012.0</ele><time>2026-05-02T16:43:51.999Z</time></trkpt><trkpt lat="46.49635349560961" lon="11.766345193111515"><ele>2012.0</ele><time>2026-05-02T16:43:55.999Z</time></trkpt><trkpt lat="46.49631605743845" lon="11.766432853341085"><ele>2012.0</ele><time>2026-05-02T16:44:02Z</time></trkpt><trkpt lat="46.4962734278784" lon="11.766520870382063"><ele>2011.9999999999998</ele><time>2026-05-02T16:44:08Z</time></trkpt><trkpt lat="46.496237880108765" lon="11.766611236909013"><ele>2012.0</ele><time>2026-05-02T16:44:14Z</time></trkpt><trkpt lat="46.49620129300519" lon="11.766702608621452"><ele>2012.0</ele><time>2026-05-02T16:44:20Z</time></trkpt><trkpt lat="46.496163747537715" lon="11.766792336789393"><ele>2012.0000000000002</ele><time>2026-05-02T16:44:26Z</time></trkpt><trkpt lat="46.49612901658763" lon="11.76687585267195"><ele>2012.0</ele><time>2026-05-02T16:44:32Z</time></trkpt><trkpt lat="46.496091897451535" lon="11.766970638026507"><ele>2012.0</ele><time>2026-05-02T16:44:39Z</time></trkpt><trkpt lat="46.496050472321514" lon="11.767051761753798"><ele>2012.0000000000002</ele><time>2026-05-02T16:44:46Z</time></trkpt><trkpt lat="46.49601676178849" lon="11.767138771203019"><ele>2012.0</ele><time>2026-05-02T16:44:53Z</time></trkpt><trkpt lat="46.49598674056353" lon="11.76722458406808"><ele>2012.0</ele><time>2026-05-02T16:45:00Z</time></trkpt><trkpt lat="46.49595377853527" lon="11.767310155749557"><ele>2010.1428571428573</ele><time>2026-05-02T16:45:07Z</time></trkpt><trkpt lat="46.49591724305955" lon="11.767396914295386"><ele>2008.2857142857144</ele><time>2026-05-02T16:45:15Z</time></trkpt><trkpt lat="46.49587538996466" lon="11.767476267268565"><ele>2006.4285714285716</ele><time>2026-05-02T16:45:21Z</time></trkpt><trkpt lat="46.49583451058551" lon="11.76756098643246"><ele>2004.5714285714284</ele><time>2026-05-02T16:45:27Z</time></trkpt><trkpt lat="46.49579420355217" lon="11.767635333304728"><ele>2002.7142857142856</ele><time>2026-05-02T16:45:34Z</time></trkpt><trkpt lat="46.49577049713459" lon="11.767730366572284"><ele>2000.8571428571427</ele><time>2026-05-02T16:45:39.999Z</time></trkpt><trkpt lat="46.49574238096353" lon="11.767813198821242"><ele>1999.0</ele><time>2026-05-02T16:45:44.999Z</time></trkpt><trkpt lat="46.49573632449316" lon="11.767908290790203"><ele>1997.142857142857</ele><time>2026-05-02T16:45:49.999Z</time></trkpt><trkpt lat="46.49572483027086" lon="11.768008730378638"><ele>1995.2857142857142</ele><time>2026-05-02T16:45:55.999Z</time></trkpt><trkpt lat="46.49569166212977" lon="11.768103862305887"><ele>1993.4285714285713</ele><time>2026-05-02T16:46:01.999Z</time></trkpt><trkpt lat="46.49565259173265" lon="11.768188314462503"><ele>1991.5714285714284</ele><time>2026-05-02T16:46:08Z</time></trkpt><trkpt lat="46.495612992798755" lon="11.768273908859017"><ele>1989.7142857142858</ele><time>2026-05-02T16:46:14Z</time></trkpt><trkpt lat="46.49557329893952" lon="11.768359708545015"><ele>1987.8571428571427</ele><time>2026-05-02T16:46:20Z</time></trkpt><trkpt lat="46.49553778765775" lon="11.768436467417992"><ele>1986.0</ele><time>2026-05-02T16:46:26Z</time></trkpt><trkpt lat="46.49551384408593" lon="11.768529739085153"><ele>1986.5714285714284</ele><time>2026-05-02T16:46:32Z</time></trkpt><trkpt lat="46.4954734212866" lon="11.768601151727808"><ele>1987.1428571428573</ele><time>2026-05-02T16:46:37Z</time></trkpt><trkpt lat="46.49543514612341" lon="11.768675541248744"><ele>1987.7142857142858</ele><time>2026-05-02T16:46:42Z</time></trkpt><trkpt lat="46.49539098492295" lon="11.768761395585766"><ele>1988.2857142857142</ele><time>2026-05-02T16:46:48Z</time></trkpt><trkpt lat="46.49539297216405" lon="11.768862328392617"><ele>1988.8571428571427</ele><time>2026-05-02T16:46:54Z</time></trkpt><trkpt lat="46.49533843862659" lon="11.76892506140554"><ele>1989.4285714285716</ele><time>2026-05-02T16:47:00Z</time></trkpt><trkpt lat="46.495294719158295" lon="11.769009011526187"><ele>1990.0</ele><time>2026-05-02T16:47:06Z</time></trkpt><trkpt lat="46.495250682455975" lon="11.769087123782136"><ele>1990.0</ele><time>2026-05-02T16:47:12Z</time></trkpt><trkpt lat="46.49521136564385" lon="11.76917644361017"><ele>1990.0</ele><time>2026-05-02T16:47:19Z</time></trkpt><trkpt lat="46.49517607606037" lon="11.769264387731363"><ele>1990.0</ele><time>2026-05-02T16:47:25Z</time></trkpt><trkpt lat="46.495136173691485" lon="11.769337198060178"><ele>1990.0</ele><time>2026-05-02T16:47:29.999Z</time></trkpt><trkpt lat="46.4950913474232" lon="11.769417756526762"><ele>1990.0</ele><time>2026-05-02T16:47:35.999Z</time></trkpt><trkpt lat="46.495042354360045" lon="11.769503970866179"><ele>1990.0</ele><time>2026-05-02T16:47:41.999Z</time></trkpt><trkpt lat="46.494999145371196" lon="11.769580006814813"><ele>1990.0</ele><time>2026-05-02T16:47:47.999Z</time></trkpt><trkpt lat="46.49495196620101" lon="11.769660881009555"><ele>1986.1428571428573</ele><time>2026-05-02T16:47:53.999Z</time></trkpt><trkpt lat="46.49490576542205" lon="11.769738473287031"><ele>1982.2857142857142</ele><time>2026-05-02T16:47:59.999Z</time></trkpt><trkpt lat="46.494857495704146" lon="11.769816745587914"><ele>1978.4285714285716</ele><time>2026-05-02T16:48:05.999Z</time></trkpt><trkpt lat="46.49480649658332" lon="11.769896913464837"><ele>1974.5714285714287</ele><time>2026-05-02T16:48:12Z</time></trkpt><trkpt lat="46.49475378828925" lon="11.76997463375134"><ele>1970.7142857142858</ele><time>2026-05-02T16:48:18Z</time></trkpt><trkpt lat="46.49470351723082" lon="11.770046600477835"><ele>1966.857142857143</ele><time>2026-05-02T16:48:24Z</time></trkpt><trkpt lat="46.494655420876875" lon="11.770110437742984"><ele>1963.0</ele><time>2026-05-02T16:48:30Z</time></trkpt><trkpt lat="46.49460530730053" lon="11.770177689047127"><ele>1960.4285714285716</ele><time>2026-05-02T16:48:36Z</time></trkpt><trkpt lat="46.49455596978743" lon="11.770242487138905"><ele>1957.8571428571431</ele><time>2026-05-02T16:48:42Z</time></trkpt><trkpt lat="46.49450244337155" lon="11.77031206637921"><ele>1955.2857142857142</ele><time>2026-05-02T16:48:49Z</time></trkpt><trkpt lat="46.494449551299354" lon="11.770379836532694"><ele>1952.7142857142858</ele><time>2026-05-02T16:48:55Z</time></trkpt><trkpt lat="46.49439711151957" lon="11.77044426372487"><ele>1950.142857142857</ele><time>2026-05-02T16:49:02Z</time></trkpt><trkpt lat="46.494343699932806" lon="11.77050290320337"><ele>1947.5714285714284</ele><time>2026-05-02T16:49:08Z</time></trkpt><trkpt lat="46.49428614983585" lon="11.77054951586271"><ele>1944.9999999999998</ele><time>2026-05-02T16:49:14Z</time></trkpt><trkpt lat="46.49421583819036" lon="11.77058269707234"><ele>1944.9999999999998</ele><time>2026-05-02T16:49:21Z</time></trkpt><trkpt lat="46.49415245658877" lon="11.77058565497241"><ele>1945.0</ele><time>2026-05-02T16:49:27Z</time></trkpt><trkpt lat="46.49408408597759" lon="11.770562961296918"><ele>1944.9999999999998</ele><time>2026-05-02T16:49:34Z</time></trkpt><trkpt lat="46.494020938880595" lon="11.770532413608626"><ele>1944.9999999999998</ele><time>2026-05-02T16:49:40.999Z</time></trkpt><trkpt lat="46.49395692621849" lon="11.770504086777501"><ele>1945.0</ele><time>2026-05-02T16:49:46.999Z</time></trkpt><trkpt lat="46.49389406237195" lon="11.770476723215499"><ele>1944.9999999999998</ele><time>2026-05-02T16:50:06.999Z</time></trkpt><trkpt lat="46.493825764799546" lon="11.770450315088409"><ele>1944.9999999999998</ele><time>2026-05-02T16:50:13.999Z</time></trkpt><trkpt lat="46.493762161950386" lon="11.77044842722144"><ele>1945.428571428571</ele><time>2026-05-02T16:50:20Z</time></trkpt><trkpt lat="46.49368071714218" lon="11.770419913160486"><ele>1945.8571428571427</ele><time>2026-05-02T16:50:26Z</time></trkpt><trkpt lat="46.493608584761745" lon="11.770422863311197"><ele>1946.2857142857142</ele><time>2026-05-02T16:50:30Z</time></trkpt><trkpt lat="46.49352618626786" lon="11.770457193915302"><ele>1946.7142857142856</ele><time>2026-05-02T16:50:34Z</time></trkpt><trkpt lat="46.49347061903995" lon="11.770520104433174"><ele>1947.1428571428569</ele><time>2026-05-02T16:50:38Z</time></trkpt><trkpt lat="46.49340945517007" lon="11.770569062161792"><ele>1947.5714285714287</ele><time>2026-05-02T16:50:44Z</time></trkpt><trkpt lat="46.49335005488555" lon="11.770603165584921"><ele>1948.0</ele><time>2026-05-02T16:50:49Z</time></trkpt><trkpt lat="46.49329110594272" lon="11.770648681848247"><ele>1948.0</ele><time>2026-05-02T16:50:55Z</time></trkpt><trkpt lat="46.493223680429125" lon="11.770690434997382"><ele>1948.0</ele><time>2026-05-02T16:51:02Z</time></trkpt><trkpt lat="46.49316099935562" lon="11.770717027933348"><ele>1948.0</ele><time>2026-05-02T16:51:08Z</time></trkpt><trkpt lat="46.493095068356965" lon="11.77073999093552"><ele>1948.0</ele><time>2026-05-02T16:51:14Z</time></trkpt><trkpt lat="46.49302682127461" lon="11.770759625583548"><ele>1948.0</ele><time>2026-05-02T16:51:20Z</time></trkpt><trkpt lat="46.49295966035183" lon="11.770775032417296"><ele>1948.0</ele><time>2026-05-02T16:51:26Z</time></trkpt><trkpt lat="46.492890511555835" lon="11.770780300319347"><ele>1948.0</ele><time>2026-05-02T16:51:32Z</time></trkpt><trkpt lat="46.49282253684283" lon="11.770776499944681"><ele>1946.857142857143</ele><time>2026-05-02T16:51:37.999Z</time></trkpt><trkpt lat="46.492752077649115" lon="11.770764272196509"><ele>1945.7142857142858</ele><time>2026-05-02T16:51:43.999Z</time></trkpt><trkpt lat="46.49268576792034" lon="11.770749547886394"><ele>1944.5714285714287</ele><time>2026-05-02T16:51:49.999Z</time></trkpt><trkpt lat="46.492617529033375" lon="11.770732007269277"><ele>1943.4285714285716</ele><time>2026-05-02T16:51:55.999Z</time></trkpt><trkpt lat="46.492546635115595" lon="11.770719348639169"><ele>1942.2857142857142</ele><time>2026-05-02T16:52:01.999Z</time></trkpt><trkpt lat="46.492477293888825" lon="11.770714704826364"><ele>1941.1428571428573</ele><time>2026-05-02T16:52:07.999Z</time></trkpt><trkpt lat="46.492407531227" lon="11.770714704837754"><ele>1940.0000000000002</ele><time>2026-05-02T16:52:13.999Z</time></trkpt><trkpt lat="46.4923354783975" lon="11.77071081436764"><ele>1940.0000000000002</ele><time>2026-05-02T16:52:19.999Z</time></trkpt><trkpt lat="46.492265133967194" lon="11.770693278854207"><ele>1940.0</ele><time>2026-05-02T16:52:27Z</time></trkpt><trkpt lat="46.4921945292789" lon="11.770704303281915"><ele>1940.0000000000002</ele><time>2026-05-02T16:52:33Z</time></trkpt><trkpt lat="46.49212900447591" lon="11.77073009272114"><ele>1940.0000000000002</ele><time>2026-05-02T16:52:39Z</time></trkpt><trkpt lat="46.49206441917552" lon="11.770775317716621"><ele>1940.0</ele><time>2026-05-02T16:52:45Z</time></trkpt><trkpt lat="46.49200637233167" lon="11.77082919428211"><ele>1940.0000000000002</ele><time>2026-05-02T16:52:51Z</time></trkpt><trkpt lat="46.49194760019063" lon="11.770866487961149"><ele>1940.0000000000002</ele><time>2026-05-02T16:52:57Z</time></trkpt><trkpt lat="46.49190414548914" lon="11.770952176854193"><ele>1935.571428571429</ele><time>2026-05-02T16:53:03Z</time></trkpt><trkpt lat="46.49186577139151" lon="11.771031850244261"><ele>1931.1428571428573</ele><time>2026-05-02T16:53:09Z</time></trkpt><trkpt lat="46.4918118148585" lon="11.771091245211792"><ele>1926.7142857142858</ele><time>2026-05-02T16:53:16Z</time></trkpt><trkpt lat="46.49177119506247" lon="11.771171823281225"><ele>1922.2857142857144</ele><time>2026-05-02T16:53:35Z</time></trkpt><trkpt lat="46.49171774951881" lon="11.771233503882403"><ele>1917.8571428571431</ele><time>2026-05-02T16:53:43Z</time></trkpt><trkpt lat="46.49167310716083" lon="11.771313213612206"><ele>1913.4285714285713</ele><time>2026-05-02T16:53:50Z</time></trkpt><trkpt lat="46.49162123129896" lon="11.771384222077565"><ele>1909.0</ele><time>2026-05-02T16:53:55.999Z</time></trkpt><trkpt lat="46.49157399142602" lon="11.771448181337426"><ele>1909.0</ele><time>2026-05-02T16:54:02.999Z</time></trkpt><trkpt lat="46.4915583554531" lon="11.771545023328562"><ele>1909.0</ele><time>2026-05-02T16:54:13.999Z</time></trkpt><trkpt lat="46.49152512872947" lon="11.771625280839931"><ele>1909.0</ele><time>2026-05-02T16:54:18.999Z</time></trkpt><trkpt lat="46.49149732502128" lon="11.771707958267248"><ele>1909.0</ele><time>2026-05-02T16:54:23.999Z</time></trkpt><trkpt lat="46.4914717571703" lon="11.771803734921374"><ele>1909.0</ele><time>2026-05-02T16:54:30Z</time></trkpt><trkpt lat="46.49146846818247" lon="11.77191964134169"><ele>1909.0</ele><time>2026-05-02T16:54:35Z</time></trkpt><trkpt lat="46.491480588653" lon="11.772011859054361"><ele>1909.0</ele><time>2026-05-02T16:54:40Z</time></trkpt><trkpt lat="46.491499373396216" lon="11.772109505265838"><ele>1906.0</ele><time>2026-05-02T16:54:46Z</time></trkpt><trkpt lat="46.49152260699313" lon="11.772204748227578"><ele>1903.0</ele><time>2026-05-02T16:54:52Z</time></trkpt><trkpt lat="46.491552136747615" lon="11.772301092900976"><ele>1900.0</ele><time>2026-05-02T16:54:58Z</time></trkpt><trkpt lat="46.49157880886062" lon="11.772384823816857"><ele>1897.0</ele><time>2026-05-02T16:55:04Z</time></trkpt><trkpt lat="46.49160938772759" lon="11.772480819003468"><ele>1894.0</ele><time>2026-05-02T16:55:11Z</time></trkpt><trkpt lat="46.49163829071735" lon="11.772572943895353"><ele>1891.0</ele><time>2026-05-02T16:55:18Z</time></trkpt><trkpt lat="46.49165909542093" lon="11.772667282937926"><ele>1888.0</ele><time>2026-05-02T16:55:25Z</time></trkpt><trkpt lat="46.49167233843832" lon="11.772772261739476"><ele>1885.4285714285713</ele><time>2026-05-02T16:55:35Z</time></trkpt><trkpt lat="46.491679504560864" lon="11.772878451141768"><ele>1882.8571428571431</ele><time>2026-05-02T16:55:42Z</time></trkpt><trkpt lat="46.49168348090242" lon="11.772981061821726"><ele>1880.2857142857144</ele><time>2026-05-02T16:55:49Z</time></trkpt><trkpt lat="46.491683914233896" lon="11.773079327196163"><ele>1877.7142857142858</ele><time>2026-05-02T16:55:55Z</time></trkpt><trkpt lat="46.49167739381341" lon="11.773187194988939"><ele>1875.1428571428573</ele><time>2026-05-02T16:56:01Z</time></trkpt><trkpt lat="46.49166657835475" lon="11.773279554099949"><ele>1872.571428571429</ele><time>2026-05-02T16:56:07Z</time></trkpt><trkpt lat="46.491652436553146" lon="11.773374828709322"><ele>1870.0000000000002</ele><time>2026-05-02T16:56:13.999Z</time></trkpt><trkpt lat="46.49165516694576" lon="11.77347576057109"><ele>1868.1428571428573</ele><time>2026-05-02T16:56:21.999Z</time></trkpt><trkpt lat="46.49166808941913" lon="11.773597640359604"><ele>1866.2857142857142</ele><time>2026-05-02T16:56:25.999Z</time></trkpt><trkpt lat="46.491687171567676" lon="11.773693161529042"><ele>1864.4285714285716</ele><time>2026-05-02T16:56:29.999Z</time></trkpt><trkpt lat="46.491681820669854" lon="11.773789267612"><ele>1862.5714285714287</ele><time>2026-05-02T16:56:35Z</time></trkpt><trkpt lat="46.491669573231725" lon="11.773884268285823"><ele>1860.7142857142858</ele><time>2026-05-02T16:56:40Z</time></trkpt><trkpt lat="46.49167578128605" lon="11.773988397521954"><ele>1858.857142857143</ele><time>2026-05-02T16:56:46Z</time></trkpt><trkpt lat="46.49168163891882" lon="11.7740829257956"><ele>1857.0</ele><time>2026-05-02T16:56:51Z</time></trkpt><trkpt lat="46.491689640983886" lon="11.774180622185854"><ele>1857.0</ele><time>2026-05-02T16:56:56Z</time></trkpt><trkpt lat="46.491702680025405" lon="11.77427348617617"><ele>1857.0</ele><time>2026-05-02T16:57:01Z</time></trkpt><trkpt lat="46.491733894395836" lon="11.77436784032603"><ele>1857.0</ele><time>2026-05-02T16:57:06Z</time></trkpt><trkpt lat="46.49177787753532" lon="11.774453799376573"><ele>1857.0</ele><time>2026-05-02T16:57:11Z</time></trkpt><trkpt lat="46.49182339849315" lon="11.774520011581894"><ele>1857.0</ele><time>2026-05-02T16:57:16Z</time></trkpt><trkpt lat="46.49186615857007" lon="11.774589652430471"><ele>1857.0</ele><time>2026-05-02T16:57:21Z</time></trkpt><trkpt lat="46.49191559046016" lon="11.774651776655874"><ele>1857.0</ele><time>2026-05-02T16:57:26Z</time></trkpt><trkpt lat="46.491941838498015" lon="11.77473508443557"><ele>1854.857142857143</ele><time>2026-05-02T16:57:31Z</time></trkpt><trkpt lat="46.49198703414174" lon="11.77480085628344"><ele>1852.7142857142858</ele><time>2026-05-02T16:57:37Z</time></trkpt><trkpt lat="46.492046693804205" lon="11.774855372214732"><ele>1850.5714285714287</ele><time>2026-05-02T16:57:44Z</time></trkpt><trkpt lat="46.49209570487573" lon="11.774917171541686"><ele>1848.4285714285716</ele><time>2026-05-02T16:57:51Z</time></trkpt><trkpt lat="46.49215649416657" lon="11.774947971148375"><ele>1846.2857142857142</ele><time>2026-05-02T16:57:58Z</time></trkpt><trkpt lat="46.49221570455741" lon="11.775002244282929"><ele>1844.1428571428573</ele><time>2026-05-02T16:58:11Z</time></trkpt><trkpt lat="46.49226447666394" lon="11.77507196382264"><ele>1842.0000000000002</ele><time>2026-05-02T16:58:28.999Z</time></trkpt><trkpt lat="46.49232593816999" lon="11.775127938894457"><ele>1842.0000000000002</ele><time>2026-05-02T16:58:34.999Z</time></trkpt><trkpt lat="46.492396177522686" lon="11.775142857402624"><ele>1842.0</ele><time>2026-05-02T16:58:38.999Z</time></trkpt><trkpt lat="46.49243848943599" lon="11.77521138554505"><ele>1842.0000000000002</ele><time>2026-05-02T16:58:49Z</time></trkpt><trkpt lat="46.49243729264943" lon="11.77531578620553"><ele>1842.0000000000002</ele><time>2026-05-02T16:59:17Z</time></trkpt><trkpt lat="46.49242600956214" lon="11.775421628616616"><ele>1842.0</ele><time>2026-05-02T16:59:25Z</time></trkpt><trkpt lat="46.49241925952806" lon="11.775526828885273"><ele>1842.0000000000002</ele><time>2026-05-02T16:59:31Z</time></trkpt><trkpt lat="46.49239653213596" lon="11.775623208537247"><ele>1842.0000000000002</ele><time>2026-05-02T16:59:37Z</time></trkpt><trkpt lat="46.49236392456958" lon="11.775702012648889"><ele>1839.2857142857147</ele><time>2026-05-02T16:59:43Z</time></trkpt><trkpt lat="46.49235300638778" lon="11.775792876348769"><ele>1836.5714285714287</ele><time>2026-05-02T16:59:50Z</time></trkpt><trkpt lat="46.49233790251613" lon="11.775888699839086"><ele>1833.8571428571431</ele><time>2026-05-02T16:59:57Z</time></trkpt><trkpt lat="46.49231924869229" lon="11.775976831688611"><ele>1831.1428571428573</ele><time>2026-05-02T17:00:10Z</time></trkpt><trkpt lat="46.49229320545543" lon="11.776077207697249"><ele>1828.4285714285716</ele><time>2026-05-02T17:00:15.999Z</time></trkpt><trkpt lat="46.49226484964604" lon="11.776169712347208"><ele>1825.7142857142858</ele><time>2026-05-02T17:00:23.999Z</time></trkpt><trkpt lat="46.492235751895876" lon="11.776250836477024"><ele>1823.0</ele><time>2026-05-02T17:00:30.999Z</time></trkpt><trkpt lat="46.49219969565884" lon="11.776346797560503"><ele>1821.0</ele><time>2026-05-02T17:00:37.999Z</time></trkpt><trkpt lat="46.492160699732" lon="11.7764390643169"><ele>1819.0000000000002</ele><time>2026-05-02T17:00:43.999Z</time></trkpt><trkpt lat="46.49212107475788" lon="11.776520620008492"><ele>1817.0</ele><time>2026-05-02T17:00:50Z</time></trkpt><trkpt lat="46.492082318985396" lon="11.776595604400578"><ele>1815.0</ele><time>2026-05-02T17:00:55Z</time></trkpt><trkpt lat="46.49203741149135" lon="11.776681226478862"><ele>1813.0000000000002</ele><time>2026-05-02T17:01:01Z</time></trkpt><trkpt lat="46.4920002088653" lon="11.776757923624466"><ele>1811.0</ele><time>2026-05-02T17:01:06Z</time></trkpt><trkpt lat="46.49196708304886" lon="11.776855929583006"><ele>1809.0</ele><time>2026-05-02T17:01:12Z</time></trkpt><trkpt lat="46.49192861975301" lon="11.776938551435515"><ele>1806.4285714285716</ele><time>2026-05-02T17:01:18Z</time></trkpt><trkpt lat="46.49187572698086" lon="11.77701405330452"><ele>1803.8571428571431</ele><time>2026-05-02T17:01:24Z</time></trkpt><trkpt lat="46.491838265946434" lon="11.77709016906732"><ele>1801.2857142857142</ele><time>2026-05-02T17:01:30Z</time></trkpt><trkpt lat="46.49179111380934" lon="11.777163616680422"><ele>1798.7142857142858</ele><time>2026-05-02T17:01:36Z</time></trkpt><trkpt lat="46.49173998337334" lon="11.777228783232"><ele>1796.142857142857</ele><time>2026-05-02T17:01:42Z</time></trkpt><trkpt lat="46.49168794185961" lon="11.777292426119068"><ele>1793.5714285714284</ele><time>2026-05-02T17:01:48Z</time></trkpt><trkpt lat="46.491669319230894" lon="11.77738391861042"><ele>1791.0</ele><time>2026-05-02T17:01:56Z</time></trkpt><trkpt lat="46.49162653328485" lon="11.777459492154911"><ele>1791.0</ele><time>2026-05-02T17:02:02Z</time></trkpt><trkpt lat="46.491583996823465" lon="11.777532860788368"><ele>1791.0</ele><time>2026-05-02T17:02:08Z</time></trkpt><trkpt lat="46.491539256370025" lon="11.77760123245753"><ele>1791.0</ele><time>2026-05-02T17:02:15Z</time></trkpt><trkpt lat="46.49149228544977" lon="11.777666361109949"><ele>1791.0</ele><time>2026-05-02T17:02:20Z</time></trkpt><trkpt lat="46.491444099980185" lon="11.777753187823754"><ele>1791.0</ele><time>2026-05-02T17:02:26Z</time></trkpt><trkpt lat="46.49141046951644" lon="11.777852071560595"><ele>1791.0</ele><time>2026-05-02T17:02:32Z</time></trkpt><trkpt lat="46.491372458657516" lon="11.77793262199227"><ele>1791.0</ele><time>2026-05-02T17:02:37.999Z</time></trkpt><trkpt lat="46.491327634665346" lon="11.778012809726322"><ele>1788.7142857142858</ele><time>2026-05-02T17:02:43.999Z</time></trkpt><trkpt lat="46.49128143035075" lon="11.778083461327086"><ele>1786.4285714285713</ele><time>2026-05-02T17:02:57Z</time></trkpt><trkpt lat="46.49123379128624" lon="11.778163927648734"><ele>1784.1428571428573</ele><time>2026-05-02T17:03:04Z</time></trkpt><trkpt lat="46.49124363300331" lon="11.778274563962016"><ele>1781.857142857143</ele><time>2026-05-02T17:03:11Z</time></trkpt><trkpt lat="46.491215079259206" lon="11.778361369230385"><ele>1779.5714285714287</ele><time>2026-05-02T17:03:17Z</time></trkpt><trkpt lat="46.49124203998971" lon="11.778445244253236"><ele>1777.2857142857144</ele><time>2026-05-02T17:03:21Z</time></trkpt><trkpt lat="46.49118244687421" lon="11.778497650895662"><ele>1775.0</ele><time>2026-05-02T17:03:31Z</time></trkpt><trkpt lat="46.49111375805037" lon="11.77853069113282"><ele>1772.0000000000002</ele><time>2026-05-02T17:03:38Z</time></trkpt><trkpt lat="46.491042666234" lon="11.778549680775983"><ele>1769.0</ele><time>2026-05-02T17:03:48Z</time></trkpt><trkpt lat="46.490994383435236" lon="11.778626179986867"><ele>1766.0</ele><time>2026-05-02T17:03:55Z</time></trkpt><trkpt lat="46.49095081270126" lon="11.778705568199015"><ele>1763.0</ele><time>2026-05-02T17:04:02Z</time></trkpt><trkpt lat="46.490896592527655" lon="11.778763349901771"><ele>1760.0</ele><time>2026-05-02T17:04:09Z</time></trkpt><trkpt lat="46.49083616587342" lon="11.778793129427575"><ele>1757.0000000000002</ele><time>2026-05-02T17:04:14Z</time></trkpt><trkpt lat="46.49077759302702" lon="11.778835491135844"><ele>1754.0</ele><time>2026-05-02T17:04:19.999Z</time></trkpt><trkpt lat="46.490710444552036" lon="11.778860699273856"><ele>1754.0000000000002</ele><time>2026-05-02T17:04:24.999Z</time></trkpt><trkpt lat="46.49063999889894" lon="11.778859185171884"><ele>1754.0</ele><time>2026-05-02T17:04:29.999Z</time></trkpt><trkpt lat="46.49057675968381" lon="11.778837021812507"><ele>1754.0</ele><time>2026-05-02T17:04:34.999Z</time></trkpt><trkpt lat="46.49050916702946" lon="11.778807047125694"><ele>1754.0</ele><time>2026-05-02T17:04:40.999Z</time></trkpt><trkpt lat="46.49044704668885" lon="11.77877530130184"><ele>1754.0</ele><time>2026-05-02T17:04:46.999Z</time></trkpt><trkpt lat="46.49037603233471" lon="11.778741489616655"><ele>1754.0000000000002</ele><time>2026-05-02T17:04:52.999Z</time></trkpt><trkpt lat="46.49030717652022" lon="11.77871556578204"><ele>1754.0</ele><time>2026-05-02T17:04:59Z</time></trkpt><trkpt lat="46.49023352452778" lon="11.778702239465629"><ele>1752.1666666666665</ele><time>2026-05-02T17:05:05Z</time></trkpt><trkpt lat="46.4901615083237" lon="11.778710462538466"><ele>1750.3333333333333</ele><time>2026-05-02T17:05:11Z</time></trkpt><trkpt lat="46.49008790631449" lon="11.778705180835033"><ele>1748.5</ele><time>2026-05-02T17:05:17Z</time></trkpt><trkpt lat="46.49001911897787" lon="11.778726081882146"><ele>1746.6666666666665</ele><time>2026-05-02T17:05:23Z</time></trkpt><trkpt lat="46.48995591070502" lon="11.77869391699974"><ele>1744.8333333333333</ele><time>2026-05-02T17:05:29Z</time></trkpt><trkpt lat="46.48997451886076" lon="11.778830999601565"><ele>1743.0</ele><time>2026-05-02T17:06:08Z</time></trkpt><trkpt lat="46.48991380180414" lon="11.778895313683096"><ele>1743.0</ele><time>2026-05-02T17:06:14Z</time></trkpt><trkpt lat="46.489947660797974" lon="11.778976085411456"><ele>1743.0</ele><time>2026-05-02T17:06:15Z</time></trkpt><trkpt lat="46.4900409543829" lon="11.778951794661792"><ele>1743.0</ele><time>2026-05-02T17:06:31Z</time></trkpt><trkpt lat="46.490106041484516" lon="11.778919832208418"><ele>1743.0</ele><time>2026-05-02T17:06:36.999Z</time></trkpt><trkpt lat="46.49017034657388" lon="11.778929630759192"><ele>1743.0</ele><time>2026-05-02T17:06:42.999Z</time></trkpt><trkpt lat="46.49021936190398" lon="11.778992944454773"><ele>1743.0</ele><time>2026-05-02T17:06:48.999Z</time></trkpt><trkpt lat="46.49026787620402" lon="11.7790565220243"><ele>1743.0</ele><time>2026-05-02T17:06:52.999Z</time></trkpt><trkpt lat="46.49032791727027" lon="11.77912214995874"><ele>1743.0</ele><time>2026-05-02T17:06:57.999Z</time></trkpt><trkpt lat="46.49039133920198" lon="11.779189070709844"><ele>1743.0</ele><time>2026-05-02T17:07:03.999Z</time></trkpt><trkpt lat="46.490458710553455" lon="11.779203789327688"><ele>1743.0</ele><time>2026-05-02T17:07:10Z</time></trkpt><trkpt lat="46.49052290865493" lon="11.779218409188056"><ele>1743.0</ele><time>2026-05-02T17:07:15Z</time></trkpt><trkpt lat="46.49058578804886" lon="11.779276886032275"><ele>1743.0</ele><time>2026-05-02T17:07:21Z</time></trkpt><trkpt lat="46.49064059118944" lon="11.779329130193076"><ele>1743.0</ele><time>2026-05-02T17:07:26Z</time></trkpt><trkpt lat="46.49069269525911" lon="11.77940889082953"><ele>1743.0</ele><time>2026-05-02T17:07:31Z</time></trkpt><trkpt lat="46.490728412387156" lon="11.77948829932489"><ele>1743.4285714285713</ele><time>2026-05-02T17:07:36Z</time></trkpt><trkpt lat="46.49076264884797" lon="11.779565404631166"><ele>1743.857142857143</ele><time>2026-05-02T17:07:41Z</time></trkpt><trkpt lat="46.49080691986423" lon="11.779630887727238"><ele>1744.2857142857142</ele><time>2026-05-02T17:07:47Z</time></trkpt><trkpt lat="46.490858506451175" lon="11.779692655436376"><ele>1744.7142857142858</ele><time>2026-05-02T17:07:52Z</time></trkpt><trkpt lat="46.490896754497726" lon="11.779774738399"><ele>1745.142857142857</ele><time>2026-05-02T17:07:57Z</time></trkpt><trkpt lat="46.49093097983946" lon="11.779855757191816"><ele>1745.5714285714284</ele><time>2026-05-02T17:08:01Z</time></trkpt><trkpt lat="46.49098626854293" lon="11.779923071647975"><ele>1746.0</ele><time>2026-05-02T17:08:06Z</time></trkpt><trkpt lat="46.49104376374744" lon="11.779988672817497"><ele>1745.9999999999998</ele><time>2026-05-02T17:08:12Z</time></trkpt><trkpt lat="46.491099959050814" lon="11.78005274606613"><ele>1746.0</ele><time>2026-05-02T17:08:19Z</time></trkpt><trkpt lat="46.4911520529537" lon="11.780104472868329"><ele>1746.0</ele><time>2026-05-02T17:08:24Z</time></trkpt><trkpt lat="46.49120998100515" lon="11.780154981969911"><ele>1746.0</ele><time>2026-05-02T17:08:30Z</time></trkpt><trkpt lat="46.49126822590138" lon="11.780194401303298"><ele>1746.0</ele><time>2026-05-02T17:08:35Z</time></trkpt><trkpt lat="46.49133694775195" lon="11.780231437141785"><ele>1745.9999999999998</ele><time>2026-05-02T17:08:41Z</time></trkpt><trkpt lat="46.49140062268989" lon="11.78026354977211"><ele>1746.0</ele><time>2026-05-02T17:08:47Z</time></trkpt><trkpt lat="46.491468958042006" lon="11.780298012741563"><ele>1728.0</ele><time>2026-05-02T17:08:58.999Z</time></trkpt><trkpt lat="46.49149433915968" lon="11.780392227572248"><ele>1728.0</ele><time>2026-05-02T17:09:21Z</time></trkpt><trkpt lat="46.49147967739576" lon="11.780511566780126"><ele>1728.0</ele><time>2026-05-02T17:09:25Z</time></trkpt><trkpt lat="46.49147822614524" lon="11.780603829285788"><ele>1728.0</ele><time>2026-05-02T17:09:29Z</time></trkpt><trkpt lat="46.49147788844349" lon="11.780710160496241"><ele>1728.0</ele><time>2026-05-02T17:09:36Z</time></trkpt><trkpt lat="46.49148074714956" lon="11.780822314291905"><ele>1728.0</ele><time>2026-05-02T17:09:41Z</time></trkpt></trkseg></trk></gpx>